DLH446 EDDF-KDEN
Flight info
| Callsign | DLH446 |
|---|---|
| Flight time | 9h 42m |
| Altitude | 38000 |
| Route | OBOKA5G/25C OBOKA Z28 DIBIR DCT BUDIP DCT ALFEN DCT MIMVA L602 NALAX L46 GETNO DCT KUGUR DCT BILTO/M085F390 DCT 5630N02000W 57N030W 57N040W 57N050W DCT DORYY/N0492F400 DCT 54N070W 52N080W 50N088W DCT DKOTA Q88 VIVID DCT NYTRO AALLE4 |
| Aircraft | A359/H-SDE2E3GHIJ3J4J5LM1ORWXY/LB1D1 |
Departure
| Time | 2026-05-03 21:08 |
|---|---|
| Airport | Frankfurt Main Airport (EDDF) |
Arrival
| Time | 2026-05-04 06:50 |
|---|---|
| Airport | Denver International Airport (KDEN) |
| Time | Latitude | Longitude | Altitude | Speed | Heading |
|---|---|---|---|---|---|
| 2026-05-03 20:28 | 50.04734 | 8.56269 | 369 ft | 0 kts | 339° |
| 2026-05-03 20:53 | 50.04732 | 8.56270 | 359 ft | 3 kts | 339° |
| 2026-05-03 20:54 | 50.04715 | 8.56281 | 368 ft | 3 kts | 334° |
| 2026-05-03 20:54 | 50.04683 | 8.56309 | 369 ft | 3 kts | 322° |
| 2026-05-03 20:54 | 50.04674 | 8.56320 | 369 ft | 3 kts | 319° |
| 2026-05-03 20:55 | 50.04661 | 8.56340 | 369 ft | 3 kts | 304° |
| 2026-05-03 20:55 | 50.04652 | 8.56366 | 370 ft | 3 kts | 274° |
| 2026-05-03 20:55 | 50.04653 | 8.56393 | 370 ft | 2 kts | 256° |
| 2026-05-03 20:55 | 50.04654 | 8.56398 | 370 ft | 0 kts | 256° |
| 2026-05-03 20:58 | 50.04653 | 8.56394 | 360 ft | 2 kts | 256° |
| 2026-05-03 20:58 | 50.04646 | 8.56347 | 369 ft | 6 kts | 256° |
| 2026-05-03 20:58 | 50.04636 | 8.56298 | 358 ft | 7 kts | 248° |
| 2026-05-03 20:59 | 50.04615 | 8.56216 | 359 ft | 9 kts | 248° |
| 2026-05-03 20:59 | 50.04591 | 8.56120 | 363 ft | 10 kts | 249° |
| 2026-05-03 20:59 | 50.04574 | 8.56050 | 358 ft | 0 kts | 249° |
| 2026-05-03 21:01 | 50.04573 | 8.56045 | 362 ft | 1 kts | 249° |
| 2026-05-03 21:01 | 50.04566 | 8.56014 | 357 ft | 6 kts | 249° |
| 2026-05-03 21:01 | 50.04529 | 8.55955 | 361 ft | 10 kts | 205° |
| 2026-05-03 21:01 | 50.04458 | 8.55922 | 357 ft | 11 kts | 196° |
| 2026-05-03 21:02 | 50.04380 | 8.55909 | 362 ft | 12 kts | 166° |
| 2026-05-03 21:02 | 50.04302 | 8.55954 | 358 ft | 12 kts | 159° |
| 2026-05-03 21:02 | 50.04237 | 8.55931 | 360 ft | 10 kts | 213° |
| 2026-05-03 21:02 | 50.04168 | 8.55929 | 356 ft | 11 kts | 160° |
| 2026-05-03 21:03 | 50.04090 | 8.55975 | 362 ft | 13 kts | 158° |
| 2026-05-03 21:03 | 50.04073 | 8.56049 | 359 ft | 8 kts | 71° |
| 2026-05-03 21:03 | 50.04096 | 8.56148 | 358 ft | 12 kts | 70° |
| 2026-05-03 21:03 | 50.04131 | 8.56296 | 357 ft | 17 kts | 70° |
| 2026-05-03 21:04 | 50.04177 | 8.56490 | 359 ft | 21 kts | 69° |
| 2026-05-03 21:04 | 50.04232 | 8.56721 | 356 ft | 24 kts | 70° |
| 2026-05-03 21:04 | 50.04291 | 8.56965 | 362 ft | 24 kts | 69° |
| 2026-05-03 21:04 | 50.04351 | 8.57214 | 358 ft | 25 kts | 69° |
| 2026-05-03 21:05 | 50.04411 | 8.57467 | 360 ft | 25 kts | 70° |
| 2026-05-03 21:05 | 50.04473 | 8.57726 | 362 ft | 26 kts | 70° |
| 2026-05-03 21:05 | 50.04535 | 8.57987 | 362 ft | 26 kts | 70° |
| 2026-05-03 21:05 | 50.04597 | 8.58248 | 358 ft | 25 kts | 69° |
| 2026-05-03 21:06 | 50.04653 | 8.58489 | 360 ft | 9 kts | 73° |
| 2026-05-03 21:06 | 50.04654 | 8.58511 | 358 ft | 5 kts | 90° |
| 2026-05-03 21:06 | 50.04631 | 8.58564 | 361 ft | 7 kts | 141° |
| 2026-05-03 21:06 | 50.04576 | 8.58601 | 360 ft | 10 kts | 159° |
| 2026-05-03 21:07 | 50.04526 | 8.58623 | 360 ft | 3 kts | 189° |
| 2026-05-03 21:07 | 50.04497 | 8.58612 | 356 ft | 4 kts | 204° |
| 2026-05-03 21:07 | 50.04485 | 8.58582 | 361 ft | 3 kts | 249° |
| 2026-05-03 21:07 | 50.04467 | 8.58508 | 360 ft | 25 kts | 250° |
| 2026-05-03 21:08 | 50.04330 | 8.57944 | 356 ft | 85 kts | 249° |
| 2026-05-03 21:08 | 50.04063 | 8.56819 | 357 ft | 136 kts | 250° |
| 2026-05-03 21:08 | 50.03697 | 8.55242 | 475 ft | 166 kts | 249° |
| 2026-05-03 21:08 | 50.03326 | 8.53605 | 1202 ft | 156 kts | 250° |
| 2026-05-03 21:09 | 50.02950 | 8.51999 | 1710 ft | 164 kts | 249° |
| 2026-05-03 21:09 | 50.02721 | 8.50204 | 1903 ft | 181 kts | 267° |
| 2026-05-03 21:09 | 50.02791 | 8.48108 | 2089 ft | 201 kts | 274° |
| 2026-05-03 21:09 | 50.02942 | 8.45887 | 2490 ft | 209 kts | 274° |
| 2026-05-03 21:10 | 50.02918 | 8.43653 | 3031 ft | 211 kts | 263° |
| 2026-05-03 21:10 | 50.02686 | 8.41318 | 3298 ft | 228 kts | 259° |
| 2026-05-03 21:10 | 50.02385 | 8.38830 | 3726 ft | 237 kts | 258° |
| 2026-05-03 21:10 | 50.02073 | 8.36288 | 4269 ft | 240 kts | 258° |
| 2026-05-03 21:11 | 50.01760 | 8.33721 | 4857 ft | 243 kts | 257° |
| 2026-05-03 21:11 | 50.01448 | 8.31121 | 5412 ft | 245 kts | 257° |
| 2026-05-03 21:11 | 50.01338 | 8.28456 | 5997 ft | 252 kts | 271° |
| 2026-05-03 21:11 | 50.01815 | 8.25790 | 6587 ft | 261 kts | 285° |
| 2026-05-03 21:12 | 50.02546 | 8.23221 | 7141 ft | 264 kts | 288° |
| 2026-05-03 21:12 | 50.03327 | 8.20606 | 7655 ft | 269 kts | 290° |
| 2026-05-03 21:12 | 50.04121 | 8.17946 | 8168 ft | 272 kts | 290° |
| 2026-05-03 21:12 | 50.05013 | 8.15319 | 8724 ft | 278 kts | 299° |
| 2026-05-03 21:13 | 50.06321 | 8.13045 | 9253 ft | 287 kts | 314° |
| 2026-05-03 21:13 | 50.07890 | 8.11069 | 9824 ft | 292 kts | 317° |
| 2026-05-03 21:13 | 50.09525 | 8.09158 | 10234 ft | 299 kts | 319° |
| 2026-05-03 21:13 | 50.11240 | 8.07184 | 10450 ft | 313 kts | 319° |
| 2026-05-03 21:14 | 50.13033 | 8.05129 | 10641 ft | 327 kts | 319° |
| 2026-05-03 21:14 | 50.14888 | 8.03009 | 10861 ft | 341 kts | 319° |
| 2026-05-03 21:14 | 50.16832 | 8.00787 | 11108 ft | 352 kts | 320° |
| 2026-05-03 21:14 | 50.18834 | 7.98497 | 11474 ft | 358 kts | 320° |
| 2026-05-03 21:15 | 50.20852 | 7.96189 | 11949 ft | 361 kts | 320° |
| 2026-05-03 21:15 | 50.22876 | 7.93872 | 12422 ft | 363 kts | 320° |
| 2026-05-03 21:15 | 50.24920 | 7.91527 | 12926 ft | 365 kts | 320° |
| 2026-05-03 21:15 | 50.26970 | 7.89173 | 13413 ft | 367 kts | 320° |
| 2026-05-03 21:16 | 50.29036 | 7.86794 | 13876 ft | 369 kts | 320° |
| 2026-05-03 21:16 | 50.31109 | 7.84405 | 14287 ft | 373 kts | 319° |
| 2026-05-03 21:16 | 50.33216 | 7.81972 | 14600 ft | 378 kts | 319° |
| 2026-05-03 21:16 | 50.35343 | 7.79517 | 15033 ft | 380 kts | 319° |
| 2026-05-03 21:17 | 50.37471 | 7.77060 | 15478 ft | 381 kts | 319° |
| 2026-05-03 21:17 | 50.38888 | 7.75421 | 15759 ft | 383 kts | 319° |
| 2026-05-03 21:17 | 50.41767 | 7.72086 | 16303 ft | 386 kts | 319° |
| 2026-05-03 21:17 | 50.43934 | 7.69573 | 16733 ft | 388 kts | 319° |
| 2026-05-03 21:18 | 50.46091 | 7.67068 | 17151 ft | 390 kts | 319° |
| 2026-05-03 21:18 | 50.48276 | 7.64528 | 17574 ft | 392 kts | 319° |
| 2026-05-03 21:18 | 50.50478 | 7.61964 | 17978 ft | 395 kts | 319° |
| 2026-05-03 21:18 | 50.52691 | 7.59385 | 18377 ft | 397 kts | 318° |
| 2026-05-03 21:19 | 50.54914 | 7.56789 | 18712 ft | 399 kts | 318° |
| 2026-05-03 21:19 | 50.57153 | 7.54173 | 19048 ft | 401 kts | 318° |
| 2026-05-03 21:19 | 50.59399 | 7.51546 | 19379 ft | 403 kts | 318° |
| 2026-05-03 21:19 | 50.61663 | 7.48895 | 19708 ft | 406 kts | 318° |
| 2026-05-03 21:20 | 50.63936 | 7.46231 | 20061 ft | 408 kts | 318° |
| 2026-05-03 21:20 | 50.66188 | 7.43587 | 20441 ft | 409 kts | 318° |
| 2026-05-03 21:20 | 50.68507 | 7.40860 | 20781 ft | 411 kts | 318° |
| 2026-05-03 21:20 | 50.70772 | 7.38195 | 21089 ft | 413 kts | 318° |
| 2026-05-03 21:21 | 50.73072 | 7.35445 | 21427 ft | 414 kts | 316° |
| 2026-05-03 21:21 | 50.75121 | 7.32294 | 21719 ft | 410 kts | 306° |
| 2026-05-03 21:21 | 50.76906 | 7.28796 | 22036 ft | 410 kts | 302° |
| 2026-05-03 21:21 | 50.78549 | 7.25217 | 22338 ft | 410 kts | 300° |
| 2026-05-03 21:22 | 50.80175 | 7.21489 | 22655 ft | 412 kts | 299° |
| 2026-05-03 21:22 | 50.81788 | 7.17733 | 22983 ft | 414 kts | 299° |
| 2026-05-03 21:22 | 50.83414 | 7.13961 | 23302 ft | 416 kts | 299° |
| 2026-05-03 21:22 | 50.85060 | 7.10177 | 23594 ft | 419 kts | 299° |
| 2026-05-03 21:23 | 50.86731 | 7.06371 | 23853 ft | 421 kts | 300° |
| 2026-05-03 21:23 | 50.88407 | 7.02575 | 24153 ft | 422 kts | 300° |
| 2026-05-03 21:23 | 50.90091 | 6.98772 | 24456 ft | 422 kts | 300° |
| 2026-05-03 21:23 | 50.91786 | 6.94957 | 24730 ft | 424 kts | 300° |
| 2026-05-03 21:24 | 50.93481 | 6.91132 | 25005 ft | 425 kts | 300° |
| 2026-05-03 21:24 | 50.95182 | 6.87279 | 25257 ft | 426 kts | 300° |
| 2026-05-03 21:24 | 50.96888 | 6.83409 | 25542 ft | 427 kts | 300° |
| 2026-05-03 21:24 | 50.98589 | 6.79543 | 25812 ft | 429 kts | 300° |
| 2026-05-03 21:25 | 51.00280 | 6.75694 | 26095 ft | 430 kts | 300° |
| 2026-05-03 21:25 | 51.01995 | 6.71785 | 26382 ft | 431 kts | 300° |
| 2026-05-03 21:25 | 51.03708 | 6.67873 | 26671 ft | 432 kts | 299° |
| 2026-05-03 21:25 | 51.05428 | 6.63941 | 26957 ft | 434 kts | 299° |
| 2026-05-03 21:26 | 51.07153 | 6.59991 | 27276 ft | 435 kts | 299° |
| 2026-05-03 21:26 | 51.08882 | 6.56027 | 27602 ft | 436 kts | 299° |
| 2026-05-03 21:26 | 51.10617 | 6.52054 | 27894 ft | 437 kts | 299° |
| 2026-05-03 21:26 | 51.12349 | 6.48070 | 28187 ft | 439 kts | 299° |
| 2026-05-03 21:27 | 51.14087 | 6.44060 | 28474 ft | 440 kts | 299° |
| 2026-05-03 21:27 | 51.15828 | 6.40037 | 28779 ft | 441 kts | 299° |
| 2026-05-03 21:27 | 51.17552 | 6.36044 | 28997 ft | 445 kts | 299° |
| 2026-05-03 21:27 | 51.19311 | 6.31966 | 29232 ft | 447 kts | 299° |
| 2026-05-03 21:28 | 51.21082 | 6.27856 | 29547 ft | 449 kts | 299° |
| 2026-05-03 21:28 | 51.22853 | 6.23745 | 29868 ft | 450 kts | 299° |
| 2026-05-03 21:28 | 51.24627 | 6.19620 | 30176 ft | 452 kts | 299° |
| 2026-05-03 21:28 | 51.26401 | 6.15488 | 30461 ft | 452 kts | 298° |
| 2026-05-03 21:29 | 51.28170 | 6.11363 | 30713 ft | 453 kts | 298° |
| 2026-05-03 21:29 | 51.29928 | 6.07188 | 30946 ft | 454 kts | 297° |
| 2026-05-03 21:29 | 51.31668 | 6.02943 | 31181 ft | 455 kts | 297° |
| 2026-05-03 21:29 | 51.33392 | 5.98689 | 31404 ft | 457 kts | 297° |
| 2026-05-03 21:30 | 51.35116 | 5.94422 | 31634 ft | 458 kts | 297° |
| 2026-05-03 21:30 | 51.36924 | 5.90192 | 31847 ft | 463 kts | 302° |
| 2026-05-03 21:30 | 51.39056 | 5.86285 | 32054 ft | 471 kts | 309° |
| 2026-05-03 21:30 | 51.41483 | 5.82709 | 32259 ft | 475 kts | 313° |
| 2026-05-03 21:31 | 51.43992 | 5.79234 | 32452 ft | 478 kts | 314° |
| 2026-05-03 21:31 | 51.46554 | 5.75793 | 32642 ft | 481 kts | 314° |
| 2026-05-03 21:31 | 51.49148 | 5.72354 | 32765 ft | 483 kts | 314° |
| 2026-05-03 21:31 | 51.51712 | 5.68962 | 33055 ft | 482 kts | 314° |
| 2026-05-03 21:32 | 51.54324 | 5.65497 | 33376 ft | 481 kts | 314° |
| 2026-05-03 21:32 | 51.56864 | 5.62109 | 33684 ft | 479 kts | 314° |
| 2026-05-03 21:32 | 51.59422 | 5.58680 | 33958 ft | 478 kts | 314° |
| 2026-05-03 21:32 | 51.61974 | 5.55245 | 34171 ft | 478 kts | 314° |
| 2026-05-03 21:33 | 51.64521 | 5.51805 | 34334 ft | 479 kts | 314° |
| 2026-05-03 21:33 | 51.67077 | 5.48344 | 34510 ft | 480 kts | 314° |
| 2026-05-03 21:33 | 51.69627 | 5.44887 | 34717 ft | 480 kts | 314° |
| 2026-05-03 21:33 | 51.72181 | 5.41419 | 34890 ft | 480 kts | 314° |
| 2026-05-03 21:34 | 51.74746 | 5.37933 | 35068 ft | 481 kts | 315° |
| 2026-05-03 21:34 | 51.77308 | 5.34447 | 35244 ft | 481 kts | 315° |
| 2026-05-03 21:34 | 51.79865 | 5.30962 | 35376 ft | 483 kts | 314° |
| 2026-05-03 21:34 | 51.82436 | 5.27452 | 35515 ft | 484 kts | 314° |
| 2026-05-03 21:35 | 51.85011 | 5.23932 | 35704 ft | 484 kts | 315° |
| 2026-05-03 21:35 | 51.87545 | 5.20462 | 35887 ft | 484 kts | 315° |
| 2026-05-03 21:35 | 51.90119 | 5.16934 | 36039 ft | 484 kts | 315° |
| 2026-05-03 21:35 | 51.92689 | 5.13404 | 36197 ft | 485 kts | 315° |
| 2026-05-03 21:36 | 51.95295 | 5.09820 | 36377 ft | 484 kts | 315° |
| 2026-05-03 21:36 | 51.97853 | 5.06296 | 36554 ft | 484 kts | 315° |
| 2026-05-03 21:36 | 52.00397 | 5.02786 | 36696 ft | 485 kts | 315° |
| 2026-05-03 21:36 | 52.02970 | 4.99230 | 36835 ft | 485 kts | 315° |
| 2026-05-03 21:37 | 52.05548 | 4.95660 | 36984 ft | 486 kts | 315° |
| 2026-05-03 21:37 | 52.08101 | 4.92121 | 37104 ft | 486 kts | 315° |
| 2026-05-03 21:37 | 52.10693 | 4.88523 | 37258 ft | 486 kts | 315° |
| 2026-05-03 21:37 | 52.13245 | 4.84975 | 37382 ft | 487 kts | 315° |
| 2026-05-03 21:38 | 52.15811 | 4.81400 | 37493 ft | 487 kts | 315° |
| 2026-05-03 21:38 | 52.18387 | 4.77800 | 37605 ft | 487 kts | 315° |
| 2026-05-03 21:38 | 52.20899 | 4.74073 | 37806 ft | 485 kts | 313° |
| 2026-05-03 21:38 | 52.23319 | 4.70278 | 37917 ft | 484 kts | 311° |
| 2026-05-03 21:39 | 52.28134 | 4.62545 | 37938 ft | 489 kts | 311° |
| 2026-05-03 21:39 | 52.33032 | 4.54733 | 37934 ft | 491 kts | 312° |
| 2026-05-03 21:40 | 52.37946 | 4.46970 | 37919 ft | 490 kts | 312° |
| 2026-05-03 21:40 | 52.42862 | 4.39211 | 37937 ft | 490 kts | 312° |
| 2026-05-03 21:41 | 52.47740 | 4.31486 | 37932 ft | 489 kts | 312° |
| 2026-05-03 21:41 | 52.52632 | 4.23709 | 37929 ft | 489 kts | 312° |
| 2026-05-03 21:42 | 52.57520 | 4.15909 | 37924 ft | 489 kts | 312° |
| 2026-05-03 21:42 | 52.62391 | 4.08111 | 37923 ft | 489 kts | 312° |
| 2026-05-03 21:43 | 52.67230 | 4.00340 | 37938 ft | 489 kts | 312° |
| 2026-05-03 21:43 | 52.72097 | 3.92498 | 37923 ft | 489 kts | 312° |
| 2026-05-03 21:44 | 52.76965 | 3.84628 | 37923 ft | 489 kts | 312° |
| 2026-05-03 21:44 | 52.81007 | 3.78074 | 37920 ft | 489 kts | 312° |
| 2026-05-03 21:45 | 52.86651 | 3.68894 | 37917 ft | 489 kts | 311° |
| 2026-05-03 21:45 | 52.90712 | 3.62266 | 37925 ft | 489 kts | 311° |
| 2026-05-03 21:46 | 52.95522 | 3.54391 | 37952 ft | 489 kts | 311° |
| 2026-05-03 21:46 | 53.00357 | 3.46448 | 37929 ft | 488 kts | 311° |
| 2026-05-03 21:47 | 53.05197 | 3.38468 | 37913 ft | 488 kts | 311° |
| 2026-05-03 21:47 | 53.09260 | 3.29662 | 37917 ft | 479 kts | 295° |
| 2026-05-03 21:48 | 53.11584 | 3.19392 | 37909 ft | 473 kts | 281° |
| 2026-05-03 21:48 | 53.13074 | 3.08731 | 37906 ft | 472 kts | 279° |
| 2026-05-03 21:49 | 53.14430 | 2.98026 | 37911 ft | 472 kts | 279° |
| 2026-05-03 21:49 | 53.15791 | 2.87318 | 37915 ft | 472 kts | 279° |
| 2026-05-03 21:50 | 53.17169 | 2.76618 | 37916 ft | 472 kts | 279° |
| 2026-05-03 21:50 | 53.18551 | 2.65892 | 37914 ft | 472 kts | 279° |
| 2026-05-03 21:51 | 53.19913 | 2.55237 | 37927 ft | 472 kts | 279° |
| 2026-05-03 21:51 | 53.21276 | 2.44498 | 37922 ft | 473 kts | 279° |
| 2026-05-03 21:52 | 53.22627 | 2.33749 | 37926 ft | 473 kts | 279° |
| 2026-05-03 21:52 | 53.23970 | 2.22976 | 37914 ft | 473 kts | 279° |
| 2026-05-03 21:53 | 53.25302 | 2.12214 | 37917 ft | 473 kts | 279° |
| 2026-05-03 21:53 | 53.26625 | 2.01437 | 37925 ft | 473 kts | 279° |
| 2026-05-03 21:54 | 53.27937 | 1.90664 | 37919 ft | 474 kts | 279° |
| 2026-05-03 21:54 | 53.29234 | 1.79931 | 37923 ft | 474 kts | 279° |
| 2026-05-03 21:55 | 53.30530 | 1.69121 | 37920 ft | 474 kts | 279° |
| 2026-05-03 21:55 | 53.31815 | 1.58312 | 37922 ft | 474 kts | 278° |
| 2026-05-03 21:56 | 53.33110 | 1.47495 | 37926 ft | 474 kts | 280° |
| 2026-05-03 21:56 | 53.34650 | 1.36791 | 37927 ft | 476 kts | 282° |
| 2026-05-03 21:57 | 53.36274 | 1.26045 | 37926 ft | 476 kts | 282° |
| 2026-05-03 21:57 | 53.37854 | 1.15293 | 37932 ft | 476 kts | 281° |
| 2026-05-03 21:58 | 53.39390 | 1.04559 | 37931 ft | 475 kts | 281° |
| 2026-05-03 21:58 | 53.40915 | 0.93765 | 37940 ft | 477 kts | 281° |
| 2026-05-03 21:59 | 53.42436 | 0.82928 | 37933 ft | 478 kts | 281° |
| 2026-05-03 21:59 | 53.43950 | 0.72080 | 37942 ft | 478 kts | 281° |
| 2026-05-03 22:00 | 53.45458 | 0.61198 | 37948 ft | 478 kts | 281° |
| 2026-05-03 22:00 | 53.46951 | 0.50347 | 37961 ft | 477 kts | 281° |
| 2026-05-03 22:01 | 53.48427 | 0.39534 | 37948 ft | 478 kts | 281° |
| 2026-05-03 22:01 | 53.49909 | 0.28642 | 37944 ft | 478 kts | 281° |
| 2026-05-03 22:02 | 53.51375 | 0.17728 | 37941 ft | 478 kts | 281° |
| 2026-05-03 22:02 | 53.52830 | 0.06828 | 37941 ft | 478 kts | 281° |
| 2026-05-03 22:03 | 53.54281 | -0.04102 | 37965 ft | 479 kts | 281° |
| 2026-05-03 22:03 | 53.55717 | -0.15046 | 37965 ft | 480 kts | 281° |
| 2026-05-03 22:04 | 53.57145 | -0.26002 | 37966 ft | 480 kts | 281° |
| 2026-05-03 22:04 | 53.58573 | -0.36990 | 37966 ft | 480 kts | 281° |
| 2026-05-03 22:05 | 53.59983 | -0.47967 | 37965 ft | 480 kts | 281° |
| 2026-05-03 22:05 | 53.61373 | -0.58895 | 37967 ft | 480 kts | 280° |
| 2026-05-03 22:06 | 53.62762 | -0.69884 | 37971 ft | 480 kts | 280° |
| 2026-05-03 22:06 | 53.64145 | -0.80903 | 37974 ft | 480 kts | 280° |
| 2026-05-03 22:07 | 53.65523 | -0.91956 | 37979 ft | 480 kts | 280° |
| 2026-05-03 22:07 | 53.66883 | -1.02937 | 37979 ft | 480 kts | 280° |
| 2026-05-03 22:08 | 53.68228 | -1.13949 | 37979 ft | 481 kts | 280° |
| 2026-05-03 22:08 | 53.69566 | -1.24975 | 37987 ft | 481 kts | 280° |
| 2026-05-03 22:09 | 53.70900 | -1.36048 | 37989 ft | 481 kts | 280° |
| 2026-05-03 22:10 | 53.72887 | -1.52697 | 37999 ft | 481 kts | 280° |
| 2026-05-03 22:10 | 53.74182 | -1.63774 | 37993 ft | 481 kts | 279° |
| 2026-05-03 22:11 | 53.75395 | -1.74923 | 37992 ft | 481 kts | 279° |
| 2026-05-03 22:11 | 53.76573 | -1.85993 | 37993 ft | 480 kts | 279° |
| 2026-05-03 22:12 | 53.77754 | -1.97105 | 37993 ft | 481 kts | 279° |
| 2026-05-03 22:12 | 53.78926 | -2.08152 | 37993 ft | 483 kts | 279° |
| 2026-05-03 22:13 | 53.80107 | -2.19356 | 37989 ft | 482 kts | 279° |
| 2026-05-03 22:13 | 53.81265 | -2.30461 | 37988 ft | 482 kts | 278° |
| 2026-05-03 22:14 | 53.82420 | -2.41639 | 37991 ft | 482 kts | 278° |
| 2026-05-03 22:14 | 53.83563 | -2.52817 | 37987 ft | 482 kts | 279° |
| 2026-05-03 22:15 | 53.84699 | -2.64029 | 37988 ft | 482 kts | 278° |
| 2026-05-03 22:15 | 53.85824 | -2.75234 | 37987 ft | 482 kts | 278° |
| 2026-05-03 22:16 | 53.86937 | -2.86448 | 37985 ft | 483 kts | 279° |
| 2026-05-03 22:16 | 53.88044 | -2.97699 | 37983 ft | 483 kts | 278° |
| 2026-05-03 22:17 | 53.89139 | -3.08936 | 37982 ft | 483 kts | 278° |
| 2026-05-03 22:17 | 53.90214 | -3.20107 | 37979 ft | 484 kts | 278° |
| 2026-05-03 22:18 | 53.91292 | -3.31393 | 37983 ft | 483 kts | 278° |
| 2026-05-03 22:18 | 53.92356 | -3.42664 | 37986 ft | 484 kts | 278° |
| 2026-05-03 22:19 | 53.94202 | -3.53631 | 37988 ft | 485 kts | 292° |
| 2026-05-03 22:19 | 53.96955 | -3.64092 | 37984 ft | 484 kts | 294° |
| 2026-05-03 22:20 | 53.99833 | -3.74425 | 37996 ft | 485 kts | 295° |
| 2026-05-03 22:20 | 54.02712 | -3.84777 | 37988 ft | 488 kts | 295° |
| 2026-05-03 22:21 | 54.05587 | -3.95235 | 37992 ft | 488 kts | 294° |
| 2026-05-03 22:21 | 54.08446 | -4.05728 | 37993 ft | 488 kts | 294° |
| 2026-05-03 22:22 | 54.11288 | -4.16213 | 37990 ft | 487 kts | 294° |
| 2026-05-03 22:22 | 54.14125 | -4.26727 | 37998 ft | 488 kts | 294° |
| 2026-05-03 22:23 | 54.16933 | -4.37178 | 38005 ft | 487 kts | 295° |
| 2026-05-03 22:23 | 54.19747 | -4.47701 | 38005 ft | 487 kts | 294° |
| 2026-05-03 22:24 | 54.22556 | -4.58252 | 37999 ft | 487 kts | 294° |
| 2026-05-03 22:24 | 54.25355 | -4.68813 | 38005 ft | 488 kts | 294° |
| 2026-05-03 22:25 | 54.28148 | -4.79404 | 38002 ft | 488 kts | 295° |
| 2026-05-03 22:25 | 54.30931 | -4.90002 | 38010 ft | 489 kts | 295° |
| 2026-05-03 22:26 | 54.33711 | -5.00647 | 38009 ft | 490 kts | 295° |
| 2026-05-03 22:26 | 54.36487 | -5.11321 | 38006 ft | 489 kts | 294° |
| 2026-05-03 22:27 | 54.39249 | -5.21998 | 38017 ft | 489 kts | 294° |
| 2026-05-03 22:27 | 54.42001 | -5.32679 | 38018 ft | 488 kts | 294° |
| 2026-05-03 22:28 | 54.44736 | -5.43348 | 38017 ft | 488 kts | 295° |
| 2026-05-03 22:28 | 54.47467 | -5.54047 | 38018 ft | 488 kts | 294° |
| 2026-05-03 22:29 | 54.49726 | -5.62938 | 38019 ft | 488 kts | 294° |
| 2026-05-03 22:29 | 54.52875 | -5.75395 | 38021 ft | 488 kts | 294° |
| 2026-05-03 22:30 | 54.55572 | -5.86120 | 38019 ft | 488 kts | 294° |
| 2026-05-03 22:30 | 54.57448 | -5.93609 | 38020 ft | 488 kts | 294° |
| 2026-05-03 22:31 | 54.60116 | -6.04305 | 38024 ft | 488 kts | 294° |
| 2026-05-03 22:31 | 54.62784 | -6.15055 | 38047 ft | 486 kts | 294° |
| 2026-05-03 22:32 | 54.65436 | -6.25791 | 38048 ft | 486 kts | 294° |
| 2026-05-03 22:32 | 54.68077 | -6.36538 | 38048 ft | 486 kts | 294° |
| 2026-05-03 22:33 | 54.70713 | -6.47314 | 38044 ft | 486 kts | 294° |
| 2026-05-03 22:33 | 54.73334 | -6.58083 | 38037 ft | 486 kts | 294° |
| 2026-05-03 22:34 | 54.75947 | -6.68870 | 38037 ft | 486 kts | 294° |
| 2026-05-03 22:34 | 54.78558 | -6.79702 | 38042 ft | 486 kts | 294° |
| 2026-05-03 22:35 | 54.81136 | -6.90455 | 38042 ft | 486 kts | 294° |
| 2026-05-03 22:35 | 54.83716 | -7.01268 | 38048 ft | 485 kts | 294° |
| 2026-05-03 22:36 | 54.86280 | -7.12067 | 38050 ft | 484 kts | 294° |
| 2026-05-03 22:36 | 54.88834 | -7.22879 | 38054 ft | 483 kts | 294° |
| 2026-05-03 22:37 | 54.91376 | -7.33695 | 38051 ft | 483 kts | 294° |
| 2026-05-03 22:37 | 54.93909 | -7.44526 | 38059 ft | 483 kts | 294° |
| 2026-05-03 22:38 | 54.96429 | -7.55353 | 38064 ft | 483 kts | 294° |
| 2026-05-03 22:38 | 54.98930 | -7.66158 | 38055 ft | 483 kts | 294° |
| 2026-05-03 22:39 | 55.01431 | -7.77020 | 38065 ft | 483 kts | 294° |
| 2026-05-03 22:39 | 55.03917 | -7.87870 | 38066 ft | 481 kts | 294° |
| 2026-05-03 22:40 | 55.06312 | -7.98370 | 38075 ft | 480 kts | 294° |
| 2026-05-03 22:40 | 55.08709 | -8.08934 | 38074 ft | 480 kts | 294° |
| 2026-05-03 22:41 | 55.11100 | -8.19526 | 38075 ft | 480 kts | 294° |
| 2026-05-03 22:41 | 55.13495 | -8.30193 | 38073 ft | 480 kts | 294° |
| 2026-05-03 22:42 | 55.15830 | -8.40642 | 38077 ft | 480 kts | 294° |
| 2026-05-03 22:42 | 55.18097 | -8.50835 | 38083 ft | 480 kts | 294° |
| 2026-05-03 22:43 | 55.20468 | -8.61551 | 38088 ft | 480 kts | 293° |
| 2026-05-03 22:43 | 55.22860 | -8.72422 | 38087 ft | 479 kts | 293° |
| 2026-05-03 22:44 | 55.25244 | -8.83312 | 38078 ft | 478 kts | 293° |
| 2026-05-03 22:44 | 55.27597 | -8.94117 | 38090 ft | 477 kts | 293° |
| 2026-05-03 22:45 | 55.29954 | -9.04996 | 38089 ft | 477 kts | 293° |
| 2026-05-03 22:45 | 55.32299 | -9.15876 | 38093 ft | 477 kts | 293° |
| 2026-05-03 22:46 | 55.34635 | -9.26773 | 38094 ft | 477 kts | 293° |
| 2026-05-03 22:46 | 55.36964 | -9.37693 | 38101 ft | 477 kts | 293° |
| 2026-05-03 22:47 | 55.39269 | -9.48563 | 38094 ft | 477 kts | 293° |
| 2026-05-03 22:47 | 55.41574 | -9.59493 | 38101 ft | 477 kts | 293° |
| 2026-05-03 22:48 | 55.43858 | -9.70377 | 38103 ft | 475 kts | 292° |
| 2026-05-03 22:48 | 55.46138 | -9.81305 | 38104 ft | 475 kts | 292° |
| 2026-05-03 22:49 | 55.48413 | -9.92261 | 38107 ft | 475 kts | 292° |
| 2026-05-03 22:49 | 55.50668 | -10.03151 | 38107 ft | 475 kts | 293° |
| 2026-05-03 22:50 | 55.53087 | -10.14011 | 38108 ft | 475 kts | 295° |
| 2026-05-03 22:50 | 55.55561 | -10.24842 | 38111 ft | 475 kts | 294° |
| 2026-05-03 22:51 | 55.58005 | -10.35696 | 38113 ft | 475 kts | 294° |
| 2026-05-03 22:51 | 55.60407 | -10.46519 | 38113 ft | 475 kts | 294° |
| 2026-05-03 22:52 | 55.62804 | -10.57408 | 38116 ft | 475 kts | 294° |
| 2026-05-03 22:52 | 55.65191 | -10.68303 | 38100 ft | 475 kts | 294° |
| 2026-05-03 22:53 | 55.67579 | -10.79260 | 38129 ft | 475 kts | 294° |
| 2026-05-03 22:53 | 55.69954 | -10.90208 | 38113 ft | 476 kts | 294° |
| 2026-05-03 22:54 | 55.72302 | -11.01097 | 38115 ft | 476 kts | 294° |
| 2026-05-03 22:54 | 55.74656 | -11.12065 | 38138 ft | 476 kts | 293° |
| 2026-05-03 22:55 | 55.77002 | -11.23059 | 38116 ft | 476 kts | 293° |
| 2026-05-03 22:55 | 55.79337 | -11.34058 | 38120 ft | 475 kts | 293° |
| 2026-05-03 22:56 | 55.81655 | -11.45039 | 38128 ft | 474 kts | 293° |
| 2026-05-03 22:56 | 55.83959 | -11.56012 | 38129 ft | 473 kts | 293° |
| 2026-05-03 22:57 | 55.86258 | -11.67018 | 38122 ft | 473 kts | 293° |
| 2026-05-03 22:57 | 55.88529 | -11.77952 | 38122 ft | 474 kts | 293° |
| 2026-05-03 22:58 | 55.90804 | -11.88963 | 38129 ft | 474 kts | 293° |
| 2026-05-03 22:58 | 55.93084 | -12.00062 | 38127 ft | 474 kts | 292° |
| 2026-05-03 22:59 | 55.95327 | -12.11042 | 38131 ft | 474 kts | 292° |
| 2026-05-03 22:59 | 55.97573 | -12.22095 | 38133 ft | 474 kts | 292° |
| 2026-05-03 23:00 | 55.99811 | -12.33172 | 38135 ft | 472 kts | 292° |
| 2026-05-03 23:00 | 56.02020 | -12.44166 | 38133 ft | 471 kts | 292° |
| 2026-05-03 23:01 | 56.04231 | -12.55230 | 38138 ft | 471 kts | 292° |
| 2026-05-03 23:01 | 56.06427 | -12.66283 | 38140 ft | 472 kts | 292° |
| 2026-05-03 23:02 | 56.08616 | -12.77362 | 38136 ft | 473 kts | 292° |
| 2026-05-03 23:02 | 56.10801 | -12.88487 | 38132 ft | 473 kts | 292° |
| 2026-05-03 23:03 | 56.12972 | -12.99599 | 38139 ft | 473 kts | 292° |
| 2026-05-03 23:03 | 56.15126 | -13.10693 | 38137 ft | 473 kts | 291° |
| 2026-05-03 23:04 | 56.17283 | -13.21865 | 38133 ft | 471 kts | 291° |
| 2026-05-03 23:04 | 56.19413 | -13.32957 | 38133 ft | 471 kts | 291° |
| 2026-05-03 23:05 | 56.21535 | -13.44074 | 38135 ft | 471 kts | 291° |
| 2026-05-03 23:05 | 56.23652 | -13.55232 | 38138 ft | 471 kts | 291° |
| 2026-05-03 23:06 | 56.25760 | -13.66403 | 38141 ft | 471 kts | 291° |
| 2026-05-03 23:06 | 56.27847 | -13.77537 | 38141 ft | 472 kts | 291° |
| 2026-05-03 23:07 | 56.29933 | -13.88725 | 38116 ft | 472 kts | 291° |
| 2026-05-03 23:07 | 56.32015 | -13.99956 | 38135 ft | 472 kts | 290° |
| 2026-05-03 23:08 | 56.34080 | -14.11165 | 38138 ft | 471 kts | 290° |
| 2026-05-03 23:08 | 56.36136 | -14.22391 | 38133 ft | 471 kts | 290° |
| 2026-05-03 23:09 | 56.38176 | -14.33602 | 38136 ft | 471 kts | 290° |
| 2026-05-03 23:09 | 56.40208 | -14.44831 | 38139 ft | 471 kts | 290° |
| 2026-05-03 23:10 | 56.42233 | -14.56088 | 38120 ft | 471 kts | 290° |
| 2026-05-03 23:10 | 56.44251 | -14.67378 | 38141 ft | 471 kts | 290° |
| 2026-05-03 23:11 | 56.46249 | -14.78627 | 38132 ft | 472 kts | 290° |
| 2026-05-03 23:11 | 56.48246 | -14.89936 | 38132 ft | 472 kts | 289° |
| 2026-05-03 23:11 | 56.49203 | -14.95578 | 38282 ft | 470 kts | 286° |
| 2026-05-03 23:12 | 56.49847 | -15.01402 | 38594 ft | 469 kts | 279° |
| 2026-05-03 23:12 | 56.50135 | -15.07261 | 38782 ft | 469 kts | 276° |
| 2026-05-03 23:12 | 56.50315 | -15.13158 | 38884 ft | 469 kts | 274° |
| 2026-05-03 23:13 | 56.50535 | -15.24923 | 39064 ft | 469 kts | 273° |
| 2026-05-03 23:13 | 56.50710 | -15.36759 | 39140 ft | 472 kts | 273° |
| 2026-05-03 23:14 | 56.50893 | -15.48747 | 39142 ft | 474 kts | 273° |
| 2026-05-03 23:14 | 56.51077 | -15.60643 | 39138 ft | 474 kts | 273° |
| 2026-05-03 23:15 | 56.51253 | -15.72538 | 39136 ft | 473 kts | 273° |
| 2026-05-03 23:15 | 56.51392 | -15.82496 | 39142 ft | 473 kts | 273° |
| 2026-05-03 23:16 | 56.51546 | -15.94353 | 39142 ft | 473 kts | 273° |
| 2026-05-03 23:16 | 56.51689 | -16.06229 | 39142 ft | 472 kts | 272° |
| 2026-05-03 23:17 | 56.51821 | -16.18132 | 39148 ft | 473 kts | 272° |
| 2026-05-03 23:17 | 56.51941 | -16.30065 | 39148 ft | 472 kts | 272° |
| 2026-05-03 23:18 | 56.52051 | -16.41978 | 39129 ft | 472 kts | 272° |
| 2026-05-03 23:18 | 56.52147 | -16.53784 | 39141 ft | 471 kts | 272° |
| 2026-05-03 23:19 | 56.52233 | -16.65649 | 39139 ft | 471 kts | 272° |
| 2026-05-03 23:19 | 56.52308 | -16.77551 | 39142 ft | 470 kts | 272° |
| 2026-05-03 23:20 | 56.52371 | -16.89320 | 39149 ft | 469 kts | 272° |
| 2026-05-03 23:20 | 56.52423 | -17.01188 | 39136 ft | 469 kts | 271° |
| 2026-05-03 23:21 | 56.52464 | -17.12968 | 39146 ft | 468 kts | 271° |
| 2026-05-03 23:21 | 56.52493 | -17.24753 | 39150 ft | 467 kts | 271° |
| 2026-05-03 23:22 | 56.52516 | -17.42397 | 39150 ft | 467 kts | 271° |
| 2026-05-03 23:22 | 56.52518 | -17.54091 | 39152 ft | 467 kts | 271° |
| 2026-05-03 23:23 | 56.52509 | -17.65883 | 39156 ft | 467 kts | 271° |
| 2026-05-03 23:23 | 56.52488 | -17.77635 | 39159 ft | 466 kts | 271° |
| 2026-05-03 23:24 | 56.52456 | -17.89365 | 39154 ft | 466 kts | 271° |
| 2026-05-03 23:24 | 56.52414 | -18.01077 | 39155 ft | 466 kts | 270° |
| 2026-05-03 23:25 | 56.52360 | -18.12890 | 39158 ft | 466 kts | 271° |
| 2026-05-03 23:25 | 56.52295 | -18.24620 | 39156 ft | 466 kts | 270° |
| 2026-05-03 23:26 | 56.52219 | -18.36307 | 39160 ft | 466 kts | 270° |
| 2026-05-03 23:26 | 56.52133 | -18.48055 | 39158 ft | 466 kts | 270° |
| 2026-05-03 23:27 | 56.52035 | -18.59779 | 39163 ft | 466 kts | 270° |
| 2026-05-03 23:27 | 56.51926 | -18.71537 | 39161 ft | 466 kts | 270° |
| 2026-05-03 23:28 | 56.51806 | -18.83219 | 39156 ft | 465 kts | 270° |
| 2026-05-03 23:28 | 56.51676 | -18.94914 | 39165 ft | 465 kts | 270° |
| 2026-05-03 23:29 | 56.51533 | -19.06682 | 39165 ft | 465 kts | 270° |
| 2026-05-03 23:29 | 56.51380 | -19.18360 | 39164 ft | 465 kts | 269° |
| 2026-05-03 23:30 | 56.51217 | -19.30056 | 39171 ft | 465 kts | 269° |
| 2026-05-03 23:30 | 56.51042 | -19.41710 | 39168 ft | 465 kts | 269° |
| 2026-05-03 23:31 | 56.50856 | -19.53441 | 39167 ft | 465 kts | 269° |
| 2026-05-03 23:31 | 56.50660 | -19.65139 | 39172 ft | 465 kts | 269° |
| 2026-05-03 23:32 | 56.50452 | -19.76816 | 39170 ft | 465 kts | 269° |
| 2026-05-03 23:32 | 56.50234 | -19.88468 | 39175 ft | 465 kts | 269° |
| 2026-05-03 23:33 | 56.50190 | -20.00221 | 39172 ft | 464 kts | 276° |
| 2026-05-03 23:33 | 56.51041 | -20.11781 | 39174 ft | 464 kts | 279° |
| 2026-05-03 23:34 | 56.52070 | -20.23280 | 39169 ft | 465 kts | 280° |
| 2026-05-03 23:34 | 56.53120 | -20.34807 | 39178 ft | 463 kts | 279° |
| 2026-05-03 23:35 | 56.54145 | -20.46322 | 39175 ft | 463 kts | 279° |
| 2026-05-03 23:35 | 56.55150 | -20.57885 | 39179 ft | 463 kts | 279° |
| 2026-05-03 23:36 | 56.56138 | -20.69407 | 39177 ft | 462 kts | 279° |
| 2026-05-03 23:36 | 56.57114 | -20.80923 | 39182 ft | 464 kts | 279° |
| 2026-05-03 23:37 | 56.58086 | -20.92517 | 39181 ft | 464 kts | 279° |
| 2026-05-03 23:37 | 56.59043 | -21.04058 | 39184 ft | 463 kts | 279° |
| 2026-05-03 23:38 | 56.59987 | -21.15582 | 39187 ft | 464 kts | 278° |
| 2026-05-03 23:38 | 56.60928 | -21.27193 | 39188 ft | 464 kts | 278° |
| 2026-05-03 23:39 | 56.61854 | -21.38776 | 39186 ft | 463 kts | 278° |
| 2026-05-03 23:39 | 56.62768 | -21.50332 | 39189 ft | 464 kts | 278° |
| 2026-05-03 23:40 | 56.63676 | -21.61963 | 39185 ft | 463 kts | 278° |
| 2026-05-03 23:40 | 56.64566 | -21.73512 | 39189 ft | 463 kts | 278° |
| 2026-05-03 23:41 | 56.65454 | -21.85178 | 39189 ft | 464 kts | 278° |
| 2026-05-03 23:41 | 56.66328 | -21.96802 | 39197 ft | 463 kts | 278° |
| 2026-05-03 23:42 | 56.67188 | -22.08390 | 39189 ft | 463 kts | 278° |
| 2026-05-03 23:42 | 56.68037 | -22.19988 | 39196 ft | 464 kts | 278° |
| 2026-05-03 23:43 | 56.68877 | -22.31612 | 39195 ft | 462 kts | 278° |
| 2026-05-03 23:43 | 56.69704 | -22.43199 | 39204 ft | 463 kts | 277° |
| 2026-05-03 23:44 | 56.70520 | -22.54805 | 39209 ft | 463 kts | 277° |
| 2026-05-03 23:44 | 56.71327 | -22.66423 | 39210 ft | 463 kts | 277° |
| 2026-05-03 23:45 | 56.72125 | -22.78095 | 39211 ft | 464 kts | 277° |
| 2026-05-03 23:45 | 56.72913 | -22.89775 | 39200 ft | 463 kts | 277° |
| 2026-05-03 23:46 | 56.73683 | -23.01335 | 39209 ft | 463 kts | 277° |
| 2026-05-03 23:46 | 56.74450 | -23.13038 | 39207 ft | 464 kts | 277° |
| 2026-05-03 23:47 | 56.75201 | -23.24671 | 39215 ft | 462 kts | 277° |
| 2026-05-03 23:47 | 56.75944 | -23.36339 | 39206 ft | 464 kts | 277° |
| 2026-05-03 23:48 | 56.76677 | -23.48048 | 39215 ft | 464 kts | 277° |
| 2026-05-03 23:48 | 56.77394 | -23.59653 | 39216 ft | 463 kts | 277° |
| 2026-05-03 23:49 | 56.78106 | -23.71374 | 39216 ft | 464 kts | 276° |
| 2026-05-03 23:49 | 56.78805 | -23.83056 | 39220 ft | 463 kts | 276° |
| 2026-05-03 23:50 | 56.79378 | -23.92786 | 39225 ft | 463 kts | 276° |
| 2026-05-03 23:50 | 56.80168 | -24.06407 | 39234 ft | 464 kts | 276° |
| 2026-05-03 23:51 | 56.80835 | -24.18126 | 39229 ft | 463 kts | 276° |
| 2026-05-03 23:51 | 56.81490 | -24.29821 | 39226 ft | 465 kts | 276° |
| 2026-05-03 23:52 | 56.82133 | -24.41522 | 39227 ft | 463 kts | 276° |
| 2026-05-03 23:52 | 56.82770 | -24.53288 | 39226 ft | 464 kts | 276° |
| 2026-05-03 23:53 | 56.83393 | -24.65015 | 39238 ft | 465 kts | 276° |
| 2026-05-03 23:53 | 56.84005 | -24.76756 | 39246 ft | 464 kts | 276° |
| 2026-05-03 23:54 | 56.84603 | -24.88426 | 39235 ft | 464 kts | 276° |
| 2026-05-03 23:54 | 56.85195 | -25.00204 | 39232 ft | 463 kts | 275° |
| 2026-05-03 23:55 | 56.85769 | -25.11862 | 39231 ft | 463 kts | 275° |
| 2026-05-03 23:55 | 56.86337 | -25.23602 | 39229 ft | 464 kts | 275° |
| 2026-05-03 23:56 | 56.86896 | -25.35388 | 39241 ft | 463 kts | 275° |
| 2026-05-03 23:56 | 56.87439 | -25.47075 | 39238 ft | 464 kts | 275° |
| 2026-05-03 23:57 | 56.87973 | -25.58834 | 39230 ft | 464 kts | 275° |
| 2026-05-03 23:57 | 56.88497 | -25.70575 | 39246 ft | 464 kts | 275° |
| 2026-05-03 23:58 | 56.89012 | -25.82397 | 39244 ft | 465 kts | 275° |
| 2026-05-03 23:58 | 56.89513 | -25.94162 | 39247 ft | 464 kts | 275° |
| 2026-05-03 23:59 | 56.90003 | -26.05912 | 39238 ft | 464 kts | 275° |
| 2026-05-03 23:59 | 56.90484 | -26.17710 | 39249 ft | 463 kts | 274° |
| 2026-05-04 00:00 | 56.90952 | -26.29468 | 39253 ft | 465 kts | 274° |
| 2026-05-04 00:00 | 56.91409 | -26.41245 | 39249 ft | 465 kts | 274° |
| 2026-05-04 00:01 | 56.91855 | -26.53000 | 39253 ft | 464 kts | 274° |
| 2026-05-04 00:01 | 56.92221 | -26.62892 | 39251 ft | 466 kts | 274° |
| 2026-05-04 00:02 | 56.92715 | -26.76594 | 39256 ft | 464 kts | 274° |
| 2026-05-04 00:02 | 56.93062 | -26.86458 | 39261 ft | 466 kts | 274° |
| 2026-05-04 00:03 | 56.93466 | -26.98261 | 39254 ft | 465 kts | 274° |
| 2026-05-04 00:03 | 56.93861 | -27.10115 | 39267 ft | 465 kts | 274° |
| 2026-05-04 00:04 | 56.94244 | -27.21971 | 39253 ft | 466 kts | 274° |
| 2026-05-04 00:04 | 56.94615 | -27.33780 | 39255 ft | 465 kts | 273° |
| 2026-05-04 00:05 | 56.94973 | -27.45556 | 39254 ft | 466 kts | 273° |
| 2026-05-04 00:05 | 56.95323 | -27.57392 | 39262 ft | 465 kts | 273° |
| 2026-05-04 00:06 | 56.95661 | -27.69248 | 39265 ft | 466 kts | 273° |
| 2026-05-04 00:06 | 56.95989 | -27.81118 | 39264 ft | 465 kts | 273° |
| 2026-05-04 00:07 | 56.96303 | -27.92918 | 39272 ft | 466 kts | 273° |
| 2026-05-04 00:07 | 56.96609 | -28.04806 | 39269 ft | 466 kts | 273° |
| 2026-05-04 00:08 | 56.96901 | -28.16625 | 39265 ft | 465 kts | 272° |
| 2026-05-04 00:08 | 56.97183 | -28.28491 | 39271 ft | 466 kts | 272° |
| 2026-05-04 00:09 | 56.97455 | -28.40358 | 39272 ft | 465 kts | 272° |
| 2026-05-04 00:09 | 56.97713 | -28.52169 | 39275 ft | 466 kts | 272° |
| 2026-05-04 00:10 | 56.97962 | -28.64020 | 39272 ft | 465 kts | 272° |
| 2026-05-04 00:10 | 56.98200 | -28.75929 | 39280 ft | 466 kts | 272° |
| 2026-05-04 00:11 | 56.98425 | -28.87735 | 39272 ft | 465 kts | 272° |
| 2026-05-04 00:11 | 56.98641 | -28.99617 | 39285 ft | 467 kts | 272° |
| 2026-05-04 00:12 | 56.98844 | -29.11490 | 39275 ft | 466 kts | 272° |
| 2026-05-04 00:12 | 56.99037 | -29.23389 | 39277 ft | 467 kts | 272° |
| 2026-05-04 00:13 | 56.99218 | -29.35250 | 39282 ft | 466 kts | 271° |
| 2026-05-04 00:13 | 56.99389 | -29.47141 | 39281 ft | 466 kts | 271° |
| 2026-05-04 00:14 | 56.99548 | -29.59054 | 39287 ft | 467 kts | 271° |
| 2026-05-04 00:14 | 56.99695 | -29.70887 | 39286 ft | 467 kts | 271° |
| 2026-05-04 00:15 | 56.99832 | -29.82804 | 39289 ft | 467 kts | 271° |
| 2026-05-04 00:15 | 56.99957 | -29.94690 | 39288 ft | 467 kts | 271° |
| 2026-05-04 00:16 | 57.00134 | -30.06607 | 39289 ft | 467 kts | 273° |
| 2026-05-04 00:16 | 57.00623 | -30.18507 | 39290 ft | 466 kts | 275° |
| 2026-05-04 00:17 | 57.01152 | -30.30338 | 39290 ft | 468 kts | 274° |
| 2026-05-04 00:17 | 57.01631 | -30.42316 | 39292 ft | 468 kts | 274° |
| 2026-05-04 00:18 | 57.02062 | -30.54158 | 39292 ft | 468 kts | 273° |
| 2026-05-04 00:18 | 57.02479 | -30.66139 | 39295 ft | 468 kts | 273° |
| 2026-05-04 00:19 | 57.02884 | -30.78066 | 39290 ft | 468 kts | 273° |
| 2026-05-04 00:19 | 57.03277 | -30.89918 | 39291 ft | 468 kts | 273° |
| 2026-05-04 00:20 | 57.03663 | -31.01875 | 39294 ft | 468 kts | 273° |
| 2026-05-04 00:20 | 57.04038 | -31.13845 | 39296 ft | 470 kts | 273° |
| 2026-05-04 00:21 | 57.04400 | -31.25781 | 39289 ft | 469 kts | 272° |
| 2026-05-04 00:21 | 57.04750 | -31.37686 | 39295 ft | 469 kts | 272° |
| 2026-05-04 00:22 | 57.05091 | -31.49683 | 39292 ft | 469 kts | 272° |
| 2026-05-04 00:22 | 57.05419 | -31.61648 | 39292 ft | 468 kts | 272° |
| 2026-05-04 00:23 | 57.05735 | -31.73570 | 39291 ft | 469 kts | 272° |
| 2026-05-04 00:23 | 57.06041 | -31.85538 | 39296 ft | 468 kts | 272° |
| 2026-05-04 00:24 | 57.06335 | -31.97518 | 39297 ft | 469 kts | 272° |
| 2026-05-04 00:24 | 57.06618 | -32.09474 | 39300 ft | 468 kts | 272° |
| 2026-05-04 00:25 | 57.06888 | -32.21363 | 39298 ft | 469 kts | 272° |
| 2026-05-04 00:25 | 57.07149 | -32.33394 | 39297 ft | 468 kts | 272° |
| 2026-05-04 00:26 | 57.07396 | -32.45277 | 39307 ft | 469 kts | 271° |
| 2026-05-04 00:26 | 57.07634 | -32.57273 | 39299 ft | 469 kts | 271° |
| 2026-05-04 00:27 | 57.07860 | -32.69256 | 39309 ft | 469 kts | 271° |
| 2026-05-04 00:27 | 57.08074 | -32.81251 | 39296 ft | 469 kts | 271° |
| 2026-05-04 00:28 | 57.08277 | -32.93206 | 39292 ft | 468 kts | 271° |
| 2026-05-04 00:28 | 57.08468 | -33.05163 | 39309 ft | 469 kts | 271° |
| 2026-05-04 00:29 | 57.08649 | -33.17143 | 39307 ft | 469 kts | 271° |
| 2026-05-04 00:29 | 57.08818 | -33.29183 | 39300 ft | 471 kts | 271° |
| 2026-05-04 00:30 | 57.08976 | -33.41203 | 39306 ft | 470 kts | 271° |
| 2026-05-04 00:30 | 57.09122 | -33.53257 | 39297 ft | 470 kts | 271° |
| 2026-05-04 00:31 | 57.09257 | -33.65271 | 39313 ft | 470 kts | 270° |
| 2026-05-04 00:31 | 57.09380 | -33.77289 | 39306 ft | 471 kts | 270° |
| 2026-05-04 00:32 | 57.09491 | -33.89266 | 39307 ft | 471 kts | 270° |
| 2026-05-04 00:32 | 57.09592 | -34.01325 | 39310 ft | 472 kts | 270° |
| 2026-05-04 00:33 | 57.09721 | -34.19426 | 39312 ft | 471 kts | 270° |
| 2026-05-04 00:34 | 57.09793 | -34.31508 | 39316 ft | 472 kts | 270° |
| 2026-05-04 00:34 | 57.09852 | -34.43485 | 39318 ft | 471 kts | 270° |
| 2026-05-04 00:35 | 57.09901 | -34.55617 | 39316 ft | 471 kts | 270° |
| 2026-05-04 00:35 | 57.09938 | -34.67612 | 39313 ft | 472 kts | 270° |
| 2026-05-04 00:36 | 57.09963 | -34.79679 | 39321 ft | 472 kts | 269° |
| 2026-05-04 00:36 | 57.09976 | -34.91810 | 39304 ft | 472 kts | 269° |
| 2026-05-04 00:37 | 57.09978 | -35.03827 | 39319 ft | 472 kts | 269° |
| 2026-05-04 00:37 | 57.09969 | -35.15901 | 39314 ft | 472 kts | 269° |
| 2026-05-04 00:38 | 57.09948 | -35.27954 | 39321 ft | 472 kts | 269° |
| 2026-05-04 00:38 | 57.09915 | -35.40061 | 39314 ft | 473 kts | 269° |
| 2026-05-04 00:39 | 57.09871 | -35.52126 | 39320 ft | 473 kts | 269° |
| 2026-05-04 00:39 | 57.09815 | -35.64286 | 39310 ft | 473 kts | 269° |
| 2026-05-04 00:40 | 57.09747 | -35.76377 | 39320 ft | 473 kts | 269° |
| 2026-05-04 00:40 | 57.09667 | -35.88467 | 39312 ft | 473 kts | 269° |
| 2026-05-04 00:41 | 57.09576 | -36.00538 | 39322 ft | 473 kts | 269° |
| 2026-05-04 00:41 | 57.09473 | -36.12667 | 39319 ft | 474 kts | 268° |
| 2026-05-04 00:42 | 57.09359 | -36.24774 | 39303 ft | 474 kts | 268° |
| 2026-05-04 00:42 | 57.09233 | -36.36881 | 39319 ft | 474 kts | 268° |
| 2026-05-04 00:43 | 57.09095 | -36.49000 | 39312 ft | 474 kts | 268° |
| 2026-05-04 00:43 | 57.08945 | -36.61139 | 39311 ft | 474 kts | 268° |
| 2026-05-04 00:44 | 57.08784 | -36.73263 | 39320 ft | 474 kts | 268° |
| 2026-05-04 00:44 | 57.08610 | -36.85386 | 39320 ft | 475 kts | 268° |
| 2026-05-04 00:45 | 57.08426 | -36.97497 | 39320 ft | 475 kts | 268° |
| 2026-05-04 00:45 | 57.08228 | -37.09670 | 39310 ft | 475 kts | 268° |
| 2026-05-04 00:46 | 57.08020 | -37.21772 | 39315 ft | 475 kts | 268° |
| 2026-05-04 00:46 | 57.07799 | -37.33944 | 39316 ft | 475 kts | 268° |
| 2026-05-04 00:47 | 57.07568 | -37.46044 | 39307 ft | 476 kts | 268° |
| 2026-05-04 00:47 | 57.07323 | -37.58255 | 39317 ft | 476 kts | 267° |
| 2026-05-04 00:48 | 57.07068 | -37.70341 | 39311 ft | 476 kts | 267° |
| 2026-05-04 00:48 | 57.06800 | -37.82501 | 39313 ft | 476 kts | 267° |
| 2026-05-04 00:49 | 57.06520 | -37.94670 | 39303 ft | 476 kts | 267° |
| 2026-05-04 00:49 | 57.06230 | -38.06791 | 39312 ft | 476 kts | 267° |
| 2026-05-04 00:50 | 57.05925 | -38.19003 | 39307 ft | 476 kts | 267° |
| 2026-05-04 00:50 | 57.05611 | -38.31114 | 39302 ft | 476 kts | 267° |
| 2026-05-04 00:51 | 57.05338 | -38.41279 | 39304 ft | 476 kts | 267° |
| 2026-05-04 00:51 | 57.05003 | -38.53405 | 39309 ft | 476 kts | 266° |
| 2026-05-04 00:52 | 57.04654 | -38.65549 | 39308 ft | 477 kts | 266° |
| 2026-05-04 00:52 | 57.04293 | -38.77734 | 39305 ft | 477 kts | 266° |
| 2026-05-04 00:53 | 57.03921 | -38.89871 | 39309 ft | 477 kts | 266° |
| 2026-05-04 00:53 | 57.03536 | -39.02070 | 39302 ft | 477 kts | 266° |
| 2026-05-04 00:54 | 57.03141 | -39.14189 | 39302 ft | 477 kts | 266° |
| 2026-05-04 00:54 | 57.02732 | -39.26379 | 39298 ft | 477 kts | 266° |
| 2026-05-04 00:55 | 57.02313 | -39.38514 | 39300 ft | 477 kts | 266° |
| 2026-05-04 00:55 | 57.01882 | -39.50665 | 39294 ft | 477 kts | 266° |
| 2026-05-04 00:56 | 57.01442 | -39.62727 | 39300 ft | 477 kts | 266° |
| 2026-05-04 00:56 | 57.00987 | -39.74863 | 39295 ft | 477 kts | 266° |
| 2026-05-04 00:57 | 57.00522 | -39.86983 | 39288 ft | 477 kts | 265° |
| 2026-05-04 00:57 | 57.00121 | -39.99185 | 39290 ft | 477 kts | 270° |
| 2026-05-04 00:58 | 57.00429 | -40.11280 | 39291 ft | 477 kts | 273° |
| 2026-05-04 00:58 | 57.00893 | -40.23467 | 39288 ft | 477 kts | 274° |
| 2026-05-04 00:59 | 57.01369 | -40.35586 | 39291 ft | 477 kts | 274° |
| 2026-05-04 00:59 | 57.01827 | -40.47776 | 39288 ft | 477 kts | 273° |
| 2026-05-04 01:00 | 57.02260 | -40.59882 | 39282 ft | 477 kts | 273° |
| 2026-05-04 01:00 | 57.02681 | -40.72035 | 39286 ft | 477 kts | 273° |
| 2026-05-04 01:01 | 57.03089 | -40.84190 | 39282 ft | 477 kts | 273° |
| 2026-05-04 01:01 | 57.03488 | -40.96399 | 39281 ft | 477 kts | 273° |
| 2026-05-04 01:02 | 57.03873 | -41.08538 | 39274 ft | 478 kts | 273° |
| 2026-05-04 01:02 | 57.04249 | -41.20747 | 39268 ft | 477 kts | 272° |
| 2026-05-04 01:03 | 57.04610 | -41.32859 | 39273 ft | 477 kts | 272° |
| 2026-05-04 01:03 | 57.04961 | -41.45076 | 39278 ft | 477 kts | 272° |
| 2026-05-04 01:04 | 57.05298 | -41.57179 | 39263 ft | 477 kts | 272° |
| 2026-05-04 01:04 | 57.05625 | -41.69376 | 39263 ft | 477 kts | 272° |
| 2026-05-04 01:05 | 57.05940 | -41.81521 | 39269 ft | 477 kts | 272° |
| 2026-05-04 01:05 | 57.06243 | -41.93704 | 39262 ft | 477 kts | 272° |
| 2026-05-04 01:06 | 57.06533 | -42.05815 | 39261 ft | 476 kts | 272° |
| 2026-05-04 01:06 | 57.06812 | -42.17966 | 39256 ft | 475 kts | 271° |
| 2026-05-04 01:07 | 57.07080 | -42.30140 | 39259 ft | 475 kts | 271° |
| 2026-05-04 01:07 | 57.07335 | -42.42293 | 39257 ft | 475 kts | 271° |
| 2026-05-04 01:08 | 57.07577 | -42.54361 | 39248 ft | 475 kts | 271° |
| 2026-05-04 01:08 | 57.07808 | -42.66464 | 39251 ft | 475 kts | 271° |
| 2026-05-04 01:09 | 57.08029 | -42.78641 | 39252 ft | 475 kts | 271° |
| 2026-05-04 01:09 | 57.08236 | -42.90744 | 39246 ft | 474 kts | 271° |
| 2026-05-04 01:10 | 57.08432 | -43.02832 | 39246 ft | 473 kts | 271° |
| 2026-05-04 01:10 | 57.08616 | -43.14908 | 39244 ft | 473 kts | 271° |
| 2026-05-04 01:11 | 57.08789 | -43.27069 | 39237 ft | 473 kts | 271° |
| 2026-05-04 01:11 | 57.08950 | -43.39167 | 39241 ft | 474 kts | 270° |
| 2026-05-04 01:12 | 57.09098 | -43.51224 | 39241 ft | 474 kts | 270° |
| 2026-05-04 01:12 | 57.09236 | -43.63333 | 39238 ft | 473 kts | 270° |
| 2026-05-04 01:13 | 57.09361 | -43.75436 | 39237 ft | 473 kts | 270° |
| 2026-05-04 01:13 | 57.09476 | -43.87585 | 39230 ft | 474 kts | 270° |
| 2026-05-04 01:14 | 57.09579 | -43.99692 | 39229 ft | 474 kts | 270° |
| 2026-05-04 01:14 | 57.09670 | -44.11802 | 39226 ft | 473 kts | 270° |
| 2026-05-04 01:15 | 57.09748 | -44.23860 | 39220 ft | 473 kts | 270° |
| 2026-05-04 01:15 | 57.09816 | -44.35986 | 39217 ft | 473 kts | 270° |
| 2026-05-04 01:16 | 57.09872 | -44.48048 | 39225 ft | 474 kts | 270° |
| 2026-05-04 01:16 | 57.09916 | -44.60217 | 39211 ft | 473 kts | 270° |
| 2026-05-04 01:17 | 57.09948 | -44.72297 | 39216 ft | 473 kts | 269° |
| 2026-05-04 01:17 | 57.09969 | -44.84449 | 39211 ft | 474 kts | 269° |
| 2026-05-04 01:18 | 57.09978 | -44.96504 | 39208 ft | 474 kts | 269° |
| 2026-05-04 01:18 | 57.09976 | -45.08602 | 39208 ft | 474 kts | 269° |
| 2026-05-04 01:19 | 57.09962 | -45.20707 | 39200 ft | 473 kts | 269° |
| 2026-05-04 01:19 | 57.09936 | -45.32850 | 39194 ft | 473 kts | 269° |
| 2026-05-04 01:20 | 57.09898 | -45.44920 | 39197 ft | 474 kts | 269° |
| 2026-05-04 01:20 | 57.09849 | -45.57037 | 39195 ft | 473 kts | 269° |
| 2026-05-04 01:21 | 57.09788 | -45.69178 | 39191 ft | 473 kts | 268° |
| 2026-05-04 01:21 | 57.09716 | -45.81294 | 39193 ft | 473 kts | 268° |
| 2026-05-04 01:22 | 57.09631 | -45.93391 | 39187 ft | 473 kts | 268° |
| 2026-05-04 01:22 | 57.09536 | -46.05436 | 39185 ft | 473 kts | 268° |
| 2026-05-04 01:23 | 57.09428 | -46.17579 | 39184 ft | 473 kts | 268° |
| 2026-05-04 01:23 | 57.09310 | -46.29628 | 39177 ft | 473 kts | 268° |
| 2026-05-04 01:24 | 57.09179 | -46.41724 | 39179 ft | 473 kts | 268° |
| 2026-05-04 01:24 | 57.09036 | -46.53846 | 39172 ft | 472 kts | 268° |
| 2026-05-04 01:25 | 57.08883 | -46.65868 | 39172 ft | 472 kts | 268° |
| 2026-05-04 01:25 | 57.08717 | -46.77996 | 39172 ft | 472 kts | 268° |
| 2026-05-04 01:26 | 57.08540 | -46.90044 | 39168 ft | 472 kts | 267° |
| 2026-05-04 01:26 | 57.08352 | -47.02126 | 39168 ft | 472 kts | 267° |
| 2026-05-04 01:27 | 57.08153 | -47.14127 | 39168 ft | 472 kts | 267° |
| 2026-05-04 01:27 | 57.07940 | -47.26252 | 39160 ft | 472 kts | 267° |
| 2026-05-04 01:28 | 57.07718 | -47.38252 | 39158 ft | 472 kts | 267° |
| 2026-05-04 01:28 | 57.07483 | -47.50318 | 39152 ft | 472 kts | 267° |
| 2026-05-04 01:29 | 57.07237 | -47.62348 | 39146 ft | 472 kts | 266° |
| 2026-05-04 01:29 | 57.06978 | -47.74461 | 39154 ft | 472 kts | 266° |
| 2026-05-04 01:30 | 57.06710 | -47.86459 | 39140 ft | 472 kts | 266° |
| 2026-05-04 01:30 | 57.06429 | -47.98523 | 39143 ft | 470 kts | 266° |
| 2026-05-04 01:31 | 57.06137 | -48.10546 | 39144 ft | 470 kts | 266° |
| 2026-05-04 01:31 | 57.05834 | -48.22554 | 39125 ft | 471 kts | 266° |
| 2026-05-04 01:32 | 57.05520 | -48.34531 | 39137 ft | 471 kts | 266° |
| 2026-05-04 01:32 | 57.05195 | -48.46494 | 39136 ft | 471 kts | 266° |
| 2026-05-04 01:33 | 57.04857 | -48.58498 | 39122 ft | 471 kts | 266° |
| 2026-05-04 01:33 | 57.04508 | -48.70519 | 39121 ft | 470 kts | 266° |
| 2026-05-04 01:34 | 57.04149 | -48.82461 | 39119 ft | 469 kts | 265° |
| 2026-05-04 01:34 | 57.03777 | -48.94465 | 39109 ft | 469 kts | 265° |
| 2026-05-04 01:35 | 57.03396 | -49.06407 | 39115 ft | 469 kts | 265° |
| 2026-05-04 01:35 | 57.03067 | -49.16394 | 39110 ft | 469 kts | 265° |
| 2026-05-04 01:36 | 57.02598 | -49.30285 | 39107 ft | 469 kts | 265° |
| 2026-05-04 01:36 | 57.02249 | -49.40317 | 39102 ft | 469 kts | 265° |
| 2026-05-04 01:37 | 57.01823 | -49.52273 | 39082 ft | 469 kts | 265° |
| 2026-05-04 01:37 | 57.01388 | -49.64160 | 39086 ft | 469 kts | 265° |
| 2026-05-04 01:38 | 57.00941 | -49.76064 | 39090 ft | 469 kts | 264° |
| 2026-05-04 01:38 | 57.00482 | -49.87983 | 39078 ft | 469 kts | 264° |
| 2026-05-04 01:39 | 56.99918 | -49.99953 | 39075 ft | 468 kts | 260° |
| 2026-05-04 01:39 | 56.98779 | -50.11644 | 39078 ft | 468 kts | 258° |
| 2026-05-04 01:40 | 56.97507 | -50.23381 | 39063 ft | 468 kts | 257° |
| 2026-05-04 01:40 | 56.96210 | -50.35055 | 39063 ft | 467 kts | 257° |
| 2026-05-04 01:41 | 56.94916 | -50.46691 | 39061 ft | 466 kts | 257° |
| 2026-05-04 01:41 | 56.93612 | -50.58370 | 39061 ft | 466 kts | 257° |
| 2026-05-04 01:42 | 56.92307 | -50.69976 | 39051 ft | 467 kts | 257° |
| 2026-05-04 01:42 | 56.90985 | -50.81621 | 39051 ft | 467 kts | 257° |
| 2026-05-04 01:43 | 56.89656 | -50.93216 | 39050 ft | 467 kts | 257° |
| 2026-05-04 01:43 | 56.88315 | -51.04820 | 39040 ft | 465 kts | 257° |
| 2026-05-04 01:44 | 56.86965 | -51.16403 | 39038 ft | 462 kts | 256° |
| 2026-05-04 01:44 | 56.85625 | -51.27803 | 39037 ft | 462 kts | 256° |
| 2026-05-04 01:45 | 56.84266 | -51.39260 | 39030 ft | 462 kts | 256° |
| 2026-05-04 01:45 | 56.82199 | -51.56510 | 39028 ft | 462 kts | 256° |
| 2026-05-04 01:46 | 56.80819 | -51.67903 | 39029 ft | 462 kts | 256° |
| 2026-05-04 01:46 | 56.79431 | -51.79276 | 39022 ft | 459 kts | 256° |
| 2026-05-04 01:47 | 56.78032 | -51.90644 | 39021 ft | 457 kts | 255° |
| 2026-05-04 01:47 | 56.76624 | -52.01984 | 39018 ft | 457 kts | 255° |
| 2026-05-04 01:48 | 56.75218 | -52.13223 | 39018 ft | 457 kts | 255° |
| 2026-05-04 01:48 | 56.73794 | -52.24521 | 39018 ft | 457 kts | 255° |
| 2026-05-04 01:49 | 56.72357 | -52.35826 | 39020 ft | 457 kts | 255° |
| 2026-05-04 01:49 | 56.70917 | -52.47067 | 39022 ft | 457 kts | 255° |
| 2026-05-04 01:50 | 56.69469 | -52.58286 | 39009 ft | 457 kts | 254° |
| 2026-05-04 01:50 | 56.67997 | -52.69599 | 39003 ft | 457 kts | 254° |
| 2026-05-04 01:51 | 56.66530 | -52.80793 | 39002 ft | 457 kts | 254° |
| 2026-05-04 01:51 | 56.65047 | -52.92020 | 38999 ft | 457 kts | 254° |
| 2026-05-04 01:52 | 56.63553 | -53.03245 | 38998 ft | 457 kts | 254° |
| 2026-05-04 01:52 | 56.62054 | -53.14422 | 38998 ft | 457 kts | 254° |
| 2026-05-04 01:53 | 56.60546 | -53.25584 | 38996 ft | 458 kts | 253° |
| 2026-05-04 01:53 | 56.59021 | -53.36790 | 38994 ft | 458 kts | 253° |
| 2026-05-04 01:54 | 56.57481 | -53.48024 | 38993 ft | 459 kts | 253° |
| 2026-05-04 01:54 | 56.55934 | -53.59223 | 38993 ft | 459 kts | 253° |
| 2026-05-04 01:55 | 56.54361 | -53.70523 | 38993 ft | 459 kts | 253° |
| 2026-05-04 01:55 | 56.52794 | -53.81703 | 38987 ft | 459 kts | 253° |
| 2026-05-04 01:56 | 56.51212 | -53.92907 | 38990 ft | 460 kts | 253° |
| 2026-05-04 01:56 | 56.49618 | -54.04118 | 38987 ft | 460 kts | 253° |
| 2026-05-04 01:57 | 56.48019 | -54.15284 | 38993 ft | 460 kts | 253° |
| 2026-05-04 01:57 | 56.46396 | -54.26532 | 38987 ft | 460 kts | 252° |
| 2026-05-04 01:58 | 56.44778 | -54.37675 | 38990 ft | 460 kts | 252° |
| 2026-05-04 01:58 | 56.43141 | -54.48863 | 38985 ft | 461 kts | 252° |
| 2026-05-04 01:59 | 56.41487 | -54.60087 | 38985 ft | 461 kts | 252° |
| 2026-05-04 01:59 | 56.39830 | -54.71259 | 38980 ft | 461 kts | 252° |
| 2026-05-04 02:00 | 56.38160 | -54.82434 | 38982 ft | 461 kts | 252° |
| 2026-05-04 02:00 | 56.36489 | -54.93549 | 38977 ft | 461 kts | 252° |
| 2026-05-04 02:01 | 56.34805 | -55.04668 | 38974 ft | 461 kts | 252° |
| 2026-05-04 02:01 | 56.33105 | -55.15818 | 38963 ft | 461 kts | 252° |
| 2026-05-04 02:02 | 56.31398 | -55.26939 | 38976 ft | 461 kts | 251° |
| 2026-05-04 02:02 | 56.29669 | -55.38126 | 38965 ft | 463 kts | 251° |
| 2026-05-04 02:03 | 56.27927 | -55.49325 | 38960 ft | 464 kts | 251° |
| 2026-05-04 02:03 | 56.26190 | -55.60421 | 38960 ft | 464 kts | 251° |
| 2026-05-04 02:04 | 56.24432 | -55.71575 | 38955 ft | 464 kts | 251° |
| 2026-05-04 02:04 | 56.22658 | -55.82750 | 38952 ft | 464 kts | 251° |
| 2026-05-04 02:05 | 56.20884 | -55.93855 | 38952 ft | 462 kts | 251° |
| 2026-05-04 02:05 | 56.19108 | -56.04901 | 38952 ft | 462 kts | 251° |
| 2026-05-04 02:06 | 56.17315 | -56.15980 | 38971 ft | 462 kts | 250° |
| 2026-05-04 02:06 | 56.15499 | -56.27123 | 38944 ft | 464 kts | 250° |
| 2026-05-04 02:07 | 56.13683 | -56.38197 | 38946 ft | 465 kts | 250° |
| 2026-05-04 02:07 | 56.11846 | -56.49335 | 38947 ft | 465 kts | 250° |
| 2026-05-04 02:08 | 56.10013 | -56.60375 | 38938 ft | 463 kts | 250° |
| 2026-05-04 02:08 | 56.08165 | -56.71441 | 38939 ft | 463 kts | 250° |
| 2026-05-04 02:09 | 56.06314 | -56.82446 | 38936 ft | 462 kts | 250° |
| 2026-05-04 02:09 | 56.04449 | -56.93467 | 38941 ft | 463 kts | 250° |
| 2026-05-04 02:10 | 56.03559 | -56.99028 | 39048 ft | 465 kts | 253° |
| 2026-05-04 02:10 | 56.02901 | -57.04705 | 39202 ft | 466 kts | 255° |
| 2026-05-04 02:10 | 56.01729 | -57.16106 | 39332 ft | 470 kts | 256° |
| 2026-05-04 02:11 | 56.01163 | -57.21891 | 39457 ft | 470 kts | 256° |
| 2026-05-04 02:11 | 56.00609 | -57.27581 | 39598 ft | 469 kts | 256° |
| 2026-05-04 02:11 | 56.00041 | -57.33364 | 39714 ft | 469 kts | 256° |
| 2026-05-04 02:11 | 55.99475 | -57.39076 | 39809 ft | 469 kts | 256° |
| 2026-05-04 02:12 | 55.98316 | -57.50598 | 39925 ft | 471 kts | 256° |
| 2026-05-04 02:12 | 55.97150 | -57.62035 | 39928 ft | 471 kts | 256° |
| 2026-05-04 02:13 | 55.95962 | -57.73567 | 39922 ft | 470 kts | 256° |
| 2026-05-04 02:13 | 55.94772 | -57.85020 | 39927 ft | 471 kts | 256° |
| 2026-05-04 02:14 | 55.93561 | -57.96539 | 39919 ft | 473 kts | 255° |
| 2026-05-04 02:14 | 55.92341 | -58.08059 | 39919 ft | 473 kts | 255° |
| 2026-05-04 02:15 | 55.91115 | -58.19522 | 39916 ft | 472 kts | 255° |
| 2026-05-04 02:15 | 55.89873 | -58.31029 | 39914 ft | 472 kts | 255° |
| 2026-05-04 02:16 | 55.88618 | -58.42544 | 39911 ft | 472 kts | 255° |
| 2026-05-04 02:16 | 55.87356 | -58.54023 | 39911 ft | 472 kts | 255° |
| 2026-05-04 02:17 | 55.86089 | -58.65439 | 39911 ft | 473 kts | 255° |
| 2026-05-04 02:17 | 55.84799 | -58.76956 | 39912 ft | 475 kts | 255° |
| 2026-05-04 02:18 | 55.83488 | -58.88563 | 39912 ft | 475 kts | 255° |
| 2026-05-04 02:18 | 55.82176 | -59.00082 | 39903 ft | 476 kts | 254° |
| 2026-05-04 02:19 | 55.80852 | -59.11592 | 39900 ft | 475 kts | 254° |
| 2026-05-04 02:19 | 55.79524 | -59.23044 | 39907 ft | 475 kts | 254° |
| 2026-05-04 02:20 | 55.78178 | -59.34545 | 39908 ft | 475 kts | 254° |
| 2026-05-04 02:20 | 55.76815 | -59.46092 | 39900 ft | 477 kts | 254° |
| 2026-05-04 02:21 | 55.75442 | -59.57617 | 39900 ft | 478 kts | 254° |
| 2026-05-04 02:21 | 55.74059 | -59.69140 | 39901 ft | 478 kts | 254° |
| 2026-05-04 02:22 | 55.72894 | -59.78762 | 39901 ft | 478 kts | 253° |
| 2026-05-04 02:22 | 55.71496 | -59.90235 | 39897 ft | 478 kts | 253° |
| 2026-05-04 02:23 | 55.70080 | -60.01749 | 39893 ft | 478 kts | 253° |
| 2026-05-04 02:23 | 55.68643 | -60.13333 | 39894 ft | 478 kts | 253° |
| 2026-05-04 02:24 | 55.67214 | -60.24762 | 39899 ft | 478 kts | 253° |
| 2026-05-04 02:24 | 55.65767 | -60.36245 | 39899 ft | 478 kts | 253° |
| 2026-05-04 02:25 | 55.64300 | -60.47784 | 39894 ft | 478 kts | 253° |
| 2026-05-04 02:25 | 55.62839 | -60.59187 | 39894 ft | 478 kts | 253° |
| 2026-05-04 02:26 | 55.61351 | -60.70710 | 39895 ft | 478 kts | 253° |
| 2026-05-04 02:26 | 55.59869 | -60.82102 | 39896 ft | 478 kts | 253° |
| 2026-05-04 02:27 | 55.58369 | -60.93530 | 39907 ft | 478 kts | 252° |
| 2026-05-04 02:27 | 55.56849 | -61.05022 | 39895 ft | 479 kts | 252° |
| 2026-05-04 02:28 | 55.55328 | -61.16439 | 39904 ft | 479 kts | 252° |
| 2026-05-04 02:28 | 55.53790 | -61.27889 | 39906 ft | 479 kts | 252° |
| 2026-05-04 02:29 | 55.52246 | -61.39302 | 39900 ft | 479 kts | 252° |
| 2026-05-04 02:29 | 55.50681 | -61.50776 | 39908 ft | 479 kts | 252° |
| 2026-05-04 02:30 | 55.49114 | -61.62177 | 39910 ft | 478 kts | 252° |
| 2026-05-04 02:30 | 55.47534 | -61.73595 | 39909 ft | 479 kts | 252° |
| 2026-05-04 02:31 | 55.45941 | -61.85008 | 39912 ft | 480 kts | 252° |
| 2026-05-04 02:31 | 55.44347 | -61.96346 | 39910 ft | 480 kts | 252° |
| 2026-05-04 02:32 | 55.42731 | -62.07760 | 39911 ft | 480 kts | 251° |
| 2026-05-04 02:32 | 55.41106 | -62.19149 | 39912 ft | 480 kts | 251° |
| 2026-05-04 02:33 | 55.39472 | -62.30532 | 39909 ft | 480 kts | 251° |
| 2026-05-04 02:33 | 55.37820 | -62.41944 | 39924 ft | 480 kts | 251° |
| 2026-05-04 02:34 | 55.36167 | -62.53278 | 39913 ft | 481 kts | 251° |
| 2026-05-04 02:34 | 55.34494 | -62.64674 | 39909 ft | 481 kts | 251° |
| 2026-05-04 02:35 | 55.32808 | -62.76073 | 39908 ft | 482 kts | 251° |
| 2026-05-04 02:35 | 55.31116 | -62.87439 | 39899 ft | 482 kts | 251° |
| 2026-05-04 02:36 | 55.29411 | -62.98810 | 39900 ft | 482 kts | 251° |
| 2026-05-04 02:36 | 55.27693 | -63.10178 | 39900 ft | 482 kts | 251° |
| 2026-05-04 02:37 | 55.25966 | -63.21532 | 39893 ft | 482 kts | 251° |
| 2026-05-04 02:37 | 55.24227 | -63.32884 | 39899 ft | 483 kts | 250° |
| 2026-05-04 02:38 | 55.22471 | -63.44268 | 39892 ft | 483 kts | 250° |
| 2026-05-04 02:38 | 55.20718 | -63.55555 | 39884 ft | 483 kts | 250° |
| 2026-05-04 02:39 | 55.18946 | -63.66887 | 39884 ft | 483 kts | 250° |
| 2026-05-04 02:39 | 55.17163 | -63.78213 | 39876 ft | 483 kts | 250° |
| 2026-05-04 02:40 | 55.15362 | -63.89573 | 39889 ft | 483 kts | 250° |
| 2026-05-04 02:40 | 55.13552 | -64.00910 | 39878 ft | 484 kts | 250° |
| 2026-05-04 02:41 | 55.11739 | -64.12199 | 39875 ft | 484 kts | 250° |
| 2026-05-04 02:41 | 55.09914 | -64.23490 | 39859 ft | 484 kts | 250° |
| 2026-05-04 02:42 | 55.08069 | -64.34821 | 39869 ft | 484 kts | 250° |
| 2026-05-04 02:42 | 55.06226 | -64.46069 | 39863 ft | 484 kts | 250° |
| 2026-05-04 02:43 | 55.04362 | -64.57367 | 39857 ft | 484 kts | 250° |
| 2026-05-04 02:43 | 55.02492 | -64.68633 | 39857 ft | 485 kts | 250° |
| 2026-05-04 02:44 | 55.00600 | -64.79951 | 39867 ft | 485 kts | 250° |
| 2026-05-04 02:44 | 54.98703 | -64.91232 | 39859 ft | 485 kts | 249° |
| 2026-05-04 02:45 | 54.96809 | -65.02424 | 39854 ft | 485 kts | 249° |
| 2026-05-04 02:45 | 54.94890 | -65.13687 | 39856 ft | 485 kts | 249° |
| 2026-05-04 02:46 | 54.92966 | -65.24910 | 39854 ft | 485 kts | 249° |
| 2026-05-04 02:46 | 54.91026 | -65.36155 | 39863 ft | 485 kts | 249° |
| 2026-05-04 02:47 | 54.89083 | -65.47346 | 39856 ft | 486 kts | 249° |
| 2026-05-04 02:47 | 54.87109 | -65.58644 | 39854 ft | 486 kts | 249° |
| 2026-05-04 02:48 | 54.85145 | -65.69815 | 39856 ft | 486 kts | 249° |
| 2026-05-04 02:48 | 54.83153 | -65.81075 | 39853 ft | 486 kts | 249° |
| 2026-05-04 02:49 | 54.81169 | -65.92225 | 39856 ft | 486 kts | 249° |
| 2026-05-04 02:49 | 54.79166 | -66.03409 | 39884 ft | 486 kts | 249° |
| 2026-05-04 02:50 | 54.77140 | -66.14648 | 39851 ft | 487 kts | 249° |
| 2026-05-04 02:50 | 54.75120 | -66.25796 | 39863 ft | 487 kts | 249° |
| 2026-05-04 02:51 | 54.73088 | -66.36936 | 39849 ft | 487 kts | 249° |
| 2026-05-04 02:51 | 54.71034 | -66.48131 | 39857 ft | 487 kts | 248° |
| 2026-05-04 02:52 | 54.68976 | -66.59283 | 39816 ft | 487 kts | 248° |
| 2026-05-04 02:52 | 54.66911 | -66.70400 | 39809 ft | 487 kts | 248° |
| 2026-05-04 02:53 | 54.64837 | -66.81503 | 39811 ft | 487 kts | 248° |
| 2026-05-04 02:53 | 54.62738 | -66.92670 | 39816 ft | 488 kts | 248° |
| 2026-05-04 02:54 | 54.60636 | -67.03791 | 39821 ft | 488 kts | 248° |
| 2026-05-04 02:54 | 54.58523 | -67.14905 | 39828 ft | 488 kts | 248° |
| 2026-05-04 02:55 | 54.55331 | -67.31574 | 39835 ft | 488 kts | 248° |
| 2026-05-04 02:56 | 54.53197 | -67.42633 | 39830 ft | 488 kts | 248° |
| 2026-05-04 02:56 | 54.51044 | -67.53733 | 39829 ft | 488 kts | 248° |
| 2026-05-04 02:57 | 54.48886 | -67.64787 | 39827 ft | 488 kts | 248° |
| 2026-05-04 02:57 | 54.46727 | -67.75789 | 39826 ft | 488 kts | 248° |
| 2026-05-04 02:58 | 54.44547 | -67.86829 | 39823 ft | 488 kts | 247° |
| 2026-05-04 02:58 | 54.42347 | -67.97911 | 39824 ft | 488 kts | 247° |
| 2026-05-04 02:59 | 54.40146 | -68.08938 | 39824 ft | 488 kts | 247° |
| 2026-05-04 02:59 | 54.37947 | -68.19892 | 39822 ft | 488 kts | 247° |
| 2026-05-04 03:00 | 54.35726 | -68.30888 | 39822 ft | 488 kts | 247° |
| 2026-05-04 03:00 | 54.33499 | -68.41859 | 39821 ft | 488 kts | 247° |
| 2026-05-04 03:01 | 54.31248 | -68.52886 | 39819 ft | 488 kts | 247° |
| 2026-05-04 03:01 | 54.28996 | -68.63853 | 39818 ft | 488 kts | 247° |
| 2026-05-04 03:02 | 54.26735 | -68.74809 | 39813 ft | 488 kts | 247° |
| 2026-05-04 03:02 | 54.24466 | -68.85740 | 39823 ft | 488 kts | 247° |
| 2026-05-04 03:03 | 54.22188 | -68.96656 | 39804 ft | 489 kts | 247° |
| 2026-05-04 03:03 | 54.19888 | -69.07617 | 39809 ft | 489 kts | 247° |
| 2026-05-04 03:04 | 54.17594 | -69.18491 | 39802 ft | 489 kts | 247° |
| 2026-05-04 03:04 | 54.15280 | -69.29403 | 39798 ft | 489 kts | 246° |
| 2026-05-04 03:05 | 54.12954 | -69.40314 | 39802 ft | 489 kts | 246° |
| 2026-05-04 03:05 | 54.10621 | -69.51194 | 39819 ft | 489 kts | 246° |
| 2026-05-04 03:06 | 54.08277 | -69.62068 | 39800 ft | 489 kts | 246° |
| 2026-05-04 03:06 | 54.05918 | -69.72953 | 39809 ft | 490 kts | 246° |
| 2026-05-04 03:07 | 54.03548 | -69.83836 | 39796 ft | 490 kts | 246° |
| 2026-05-04 03:07 | 54.01187 | -69.94621 | 39798 ft | 490 kts | 246° |
| 2026-05-04 03:08 | 53.99441 | -70.03897 | 39792 ft | 492 kts | 251° |
| 2026-05-04 03:08 | 53.97403 | -70.16999 | 39792 ft | 492 kts | 252° |
| 2026-05-04 03:09 | 53.95987 | -70.26379 | 39795 ft | 493 kts | 252° |
| 2026-05-04 03:09 | 53.94276 | -70.37646 | 39793 ft | 493 kts | 252° |
| 2026-05-04 03:10 | 53.92548 | -70.48872 | 39799 ft | 493 kts | 252° |
| 2026-05-04 03:10 | 53.90794 | -70.60166 | 39794 ft | 493 kts | 252° |
| 2026-05-04 03:11 | 53.89041 | -70.71367 | 39791 ft | 493 kts | 252° |
| 2026-05-04 03:11 | 53.87275 | -70.82571 | 39804 ft | 493 kts | 252° |
| 2026-05-04 03:12 | 53.85490 | -70.93824 | 39792 ft | 494 kts | 252° |
| 2026-05-04 03:12 | 53.83690 | -71.05101 | 39790 ft | 494 kts | 252° |
| 2026-05-04 03:13 | 53.81894 | -71.16270 | 39793 ft | 494 kts | 252° |
| 2026-05-04 03:13 | 53.80077 | -71.27497 | 39791 ft | 494 kts | 252° |
| 2026-05-04 03:14 | 53.78248 | -71.38724 | 39788 ft | 494 kts | 252° |
| 2026-05-04 03:14 | 53.76415 | -71.49902 | 39789 ft | 494 kts | 252° |
| 2026-05-04 03:15 | 53.74578 | -71.61032 | 39788 ft | 494 kts | 252° |
| 2026-05-04 03:15 | 53.72721 | -71.72213 | 39788 ft | 494 kts | 252° |
| 2026-05-04 03:16 | 53.70841 | -71.83454 | 39791 ft | 494 kts | 252° |
| 2026-05-04 03:16 | 53.68972 | -71.94566 | 39794 ft | 494 kts | 252° |
| 2026-05-04 03:17 | 53.67079 | -72.05742 | 39804 ft | 494 kts | 252° |
| 2026-05-04 03:17 | 53.65179 | -72.16884 | 39791 ft | 494 kts | 252° |
| 2026-05-04 03:18 | 53.63271 | -72.28010 | 39792 ft | 494 kts | 252° |
| 2026-05-04 03:18 | 53.61351 | -72.39134 | 39794 ft | 494 kts | 252° |
| 2026-05-04 03:19 | 53.59434 | -72.50175 | 39793 ft | 494 kts | 252° |
| 2026-05-04 03:19 | 53.57491 | -72.61286 | 39795 ft | 494 kts | 251° |
| 2026-05-04 03:20 | 53.55540 | -72.72377 | 39791 ft | 494 kts | 251° |
| 2026-05-04 03:20 | 53.53579 | -72.83459 | 39790 ft | 495 kts | 251° |
| 2026-05-04 03:21 | 53.51615 | -72.94493 | 39786 ft | 495 kts | 251° |
| 2026-05-04 03:21 | 53.49623 | -73.05614 | 39785 ft | 494 kts | 251° |
| 2026-05-04 03:22 | 53.47635 | -73.16651 | 39791 ft | 494 kts | 251° |
| 2026-05-04 03:22 | 53.45633 | -73.27691 | 39809 ft | 494 kts | 251° |
| 2026-05-04 03:23 | 53.43621 | -73.38721 | 39787 ft | 494 kts | 251° |
| 2026-05-04 03:23 | 53.41605 | -73.49709 | 39787 ft | 494 kts | 251° |
| 2026-05-04 03:24 | 53.39576 | -73.60702 | 39785 ft | 494 kts | 251° |
| 2026-05-04 03:24 | 53.37538 | -73.71674 | 39788 ft | 494 kts | 251° |
| 2026-05-04 03:25 | 53.35488 | -73.82652 | 39781 ft | 493 kts | 251° |
| 2026-05-04 03:25 | 53.33433 | -73.93589 | 39782 ft | 493 kts | 251° |
| 2026-05-04 03:26 | 53.31374 | -74.04488 | 39781 ft | 493 kts | 251° |
| 2026-05-04 03:26 | 53.29290 | -74.15449 | 39781 ft | 493 kts | 251° |
| 2026-05-04 03:27 | 53.27207 | -74.26349 | 39775 ft | 493 kts | 251° |
| 2026-05-04 03:27 | 53.25104 | -74.37282 | 39777 ft | 493 kts | 251° |
| 2026-05-04 03:28 | 53.23002 | -74.48154 | 39778 ft | 493 kts | 251° |
| 2026-05-04 03:28 | 53.20877 | -74.59080 | 39771 ft | 493 kts | 251° |
| 2026-05-04 03:29 | 53.18752 | -74.69947 | 39771 ft | 493 kts | 251° |
| 2026-05-04 03:29 | 53.16627 | -74.80751 | 39768 ft | 493 kts | 250° |
| 2026-05-04 03:30 | 53.14477 | -74.91621 | 39767 ft | 493 kts | 250° |
| 2026-05-04 03:30 | 53.12328 | -75.02424 | 39768 ft | 493 kts | 250° |
| 2026-05-04 03:31 | 53.10156 | -75.13283 | 39765 ft | 493 kts | 250° |
| 2026-05-04 03:31 | 53.07981 | -75.24099 | 39763 ft | 494 kts | 250° |
| 2026-05-04 03:32 | 53.05798 | -75.34893 | 39760 ft | 494 kts | 250° |
| 2026-05-04 03:32 | 53.03599 | -75.45707 | 39754 ft | 494 kts | 250° |
| 2026-05-04 03:33 | 53.01383 | -75.56547 | 39752 ft | 494 kts | 250° |
| 2026-05-04 03:33 | 52.99167 | -75.67326 | 39758 ft | 494 kts | 250° |
| 2026-05-04 03:34 | 52.96947 | -75.78067 | 39747 ft | 494 kts | 250° |
| 2026-05-04 03:34 | 52.94712 | -75.88826 | 39747 ft | 494 kts | 250° |
| 2026-05-04 03:35 | 52.92468 | -75.99568 | 39740 ft | 494 kts | 250° |
| 2026-05-04 03:35 | 52.90199 | -76.10368 | 39738 ft | 494 kts | 250° |
| 2026-05-04 03:36 | 52.87945 | -76.21043 | 39734 ft | 494 kts | 250° |
| 2026-05-04 03:36 | 52.85673 | -76.31744 | 39734 ft | 494 kts | 250° |
| 2026-05-04 03:37 | 52.83379 | -76.42495 | 39728 ft | 494 kts | 250° |
| 2026-05-04 03:37 | 52.81091 | -76.53159 | 39729 ft | 494 kts | 250° |
| 2026-05-04 03:38 | 52.78787 | -76.63847 | 39720 ft | 494 kts | 250° |
| 2026-05-04 03:38 | 52.76468 | -76.74543 | 39721 ft | 494 kts | 249° |
| 2026-05-04 03:39 | 52.74147 | -76.85192 | 39718 ft | 494 kts | 249° |
| 2026-05-04 03:39 | 52.71810 | -76.95862 | 39711 ft | 494 kts | 249° |
| 2026-05-04 03:40 | 52.69463 | -77.06519 | 39704 ft | 494 kts | 249° |
| 2026-05-04 03:40 | 52.67112 | -77.17147 | 39705 ft | 494 kts | 249° |
| 2026-05-04 03:41 | 52.64756 | -77.27736 | 39702 ft | 494 kts | 249° |
| 2026-05-04 03:41 | 52.62374 | -77.38392 | 39696 ft | 494 kts | 249° |
| 2026-05-04 03:42 | 52.59994 | -77.48983 | 39697 ft | 494 kts | 249° |
| 2026-05-04 03:42 | 52.57604 | -77.59565 | 39686 ft | 493 kts | 249° |
| 2026-05-04 03:43 | 52.55219 | -77.70071 | 39685 ft | 492 kts | 249° |
| 2026-05-04 03:43 | 52.52808 | -77.80642 | 39681 ft | 492 kts | 249° |
| 2026-05-04 03:44 | 52.50400 | -77.91144 | 39675 ft | 492 kts | 249° |
| 2026-05-04 03:44 | 52.47992 | -78.01596 | 39669 ft | 492 kts | 249° |
| 2026-05-04 03:45 | 52.45557 | -78.12112 | 39658 ft | 493 kts | 249° |
| 2026-05-04 03:45 | 52.43118 | -78.22595 | 39653 ft | 493 kts | 249° |
| 2026-05-04 03:46 | 52.40672 | -78.33055 | 39653 ft | 492 kts | 249° |
| 2026-05-04 03:46 | 52.38213 | -78.43523 | 39639 ft | 492 kts | 248° |
| 2026-05-04 03:47 | 52.35744 | -78.53980 | 39640 ft | 492 kts | 248° |
| 2026-05-04 03:47 | 52.33268 | -78.64416 | 39640 ft | 491 kts | 248° |
| 2026-05-04 03:48 | 52.30800 | -78.74768 | 39623 ft | 490 kts | 248° |
| 2026-05-04 03:48 | 52.28311 | -78.85159 | 39622 ft | 490 kts | 248° |
| 2026-05-04 03:49 | 52.25817 | -78.95524 | 39615 ft | 490 kts | 248° |
| 2026-05-04 03:49 | 52.23329 | -79.05810 | 39612 ft | 490 kts | 248° |
| 2026-05-04 03:50 | 52.20809 | -79.16182 | 39606 ft | 490 kts | 248° |
| 2026-05-04 03:50 | 52.18305 | -79.26439 | 39606 ft | 490 kts | 248° |
| 2026-05-04 03:51 | 52.15778 | -79.36741 | 39598 ft | 490 kts | 248° |
| 2026-05-04 03:51 | 52.13232 | -79.47074 | 39597 ft | 490 kts | 248° |
| 2026-05-04 03:52 | 52.10695 | -79.57323 | 39589 ft | 490 kts | 248° |
| 2026-05-04 03:52 | 52.08140 | -79.67594 | 39588 ft | 490 kts | 248° |
| 2026-05-04 03:53 | 52.05576 | -79.77857 | 39585 ft | 490 kts | 248° |
| 2026-05-04 03:53 | 52.03016 | -79.88054 | 39580 ft | 490 kts | 248° |
| 2026-05-04 03:54 | 52.00434 | -79.98292 | 39580 ft | 490 kts | 247° |
| 2026-05-04 03:54 | 51.98017 | -80.08624 | 39580 ft | 490 kts | 251° |
| 2026-05-04 03:55 | 51.96269 | -80.17359 | 39586 ft | 490 kts | 252° |
| 2026-05-04 03:55 | 51.93825 | -80.29609 | 39582 ft | 490 kts | 251° |
| 2026-05-04 03:56 | 51.92023 | -80.38340 | 39581 ft | 491 kts | 251° |
| 2026-05-04 03:56 | 51.89819 | -80.48810 | 39579 ft | 491 kts | 251° |
| 2026-05-04 03:57 | 51.87597 | -80.59275 | 39581 ft | 490 kts | 251° |
| 2026-05-04 03:57 | 51.85374 | -80.69700 | 39582 ft | 490 kts | 251° |
| 2026-05-04 03:58 | 51.82020 | -80.85344 | 39584 ft | 492 kts | 251° |
| 2026-05-04 03:58 | 51.79773 | -80.95762 | 39583 ft | 493 kts | 251° |
| 2026-05-04 03:59 | 51.77515 | -81.06175 | 39586 ft | 493 kts | 251° |
| 2026-05-04 03:59 | 51.75239 | -81.16620 | 39586 ft | 493 kts | 250° |
| 2026-05-04 04:00 | 51.72952 | -81.27062 | 39588 ft | 493 kts | 250° |
| 2026-05-04 04:00 | 51.70655 | -81.37490 | 39589 ft | 492 kts | 251° |
| 2026-05-04 04:01 | 51.68361 | -81.47863 | 39584 ft | 491 kts | 250° |
| 2026-05-04 04:01 | 51.66062 | -81.58201 | 39584 ft | 491 kts | 250° |
| 2026-05-04 04:02 | 51.63753 | -81.68537 | 39583 ft | 491 kts | 250° |
| 2026-05-04 04:02 | 51.61433 | -81.78866 | 39583 ft | 491 kts | 250° |
| 2026-05-04 04:03 | 51.59093 | -81.89234 | 39578 ft | 491 kts | 250° |
| 2026-05-04 04:03 | 51.56761 | -81.99517 | 39578 ft | 491 kts | 250° |
| 2026-05-04 04:04 | 51.54410 | -82.09832 | 39576 ft | 491 kts | 250° |
| 2026-05-04 04:04 | 51.52052 | -82.20130 | 39575 ft | 491 kts | 250° |
| 2026-05-04 04:05 | 51.49696 | -82.30369 | 39576 ft | 490 kts | 250° |
| 2026-05-04 04:05 | 51.47327 | -82.40616 | 39576 ft | 490 kts | 250° |
| 2026-05-04 04:06 | 51.44946 | -82.50860 | 39578 ft | 490 kts | 250° |
| 2026-05-04 04:06 | 51.42561 | -82.61076 | 39579 ft | 490 kts | 250° |
| 2026-05-04 04:07 | 51.40166 | -82.71288 | 39575 ft | 490 kts | 250° |
| 2026-05-04 04:07 | 51.37758 | -82.81503 | 39578 ft | 490 kts | 250° |
| 2026-05-04 04:08 | 51.35349 | -82.91678 | 39576 ft | 489 kts | 250° |
| 2026-05-04 04:08 | 51.32928 | -83.01851 | 39582 ft | 488 kts | 250° |
| 2026-05-04 04:09 | 51.30526 | -83.11904 | 39582 ft | 488 kts | 250° |
| 2026-05-04 04:09 | 51.28079 | -83.22093 | 39581 ft | 488 kts | 250° |
| 2026-05-04 04:10 | 51.25654 | -83.32142 | 39576 ft | 488 kts | 249° |
| 2026-05-04 04:10 | 51.23191 | -83.42303 | 39584 ft | 488 kts | 250° |
| 2026-05-04 04:11 | 51.20745 | -83.52348 | 39582 ft | 488 kts | 249° |
| 2026-05-04 04:11 | 51.18279 | -83.62431 | 39582 ft | 488 kts | 249° |
| 2026-05-04 04:12 | 51.15809 | -83.72481 | 39583 ft | 487 kts | 249° |
| 2026-05-04 04:12 | 51.13329 | -83.82528 | 39582 ft | 487 kts | 249° |
| 2026-05-04 04:13 | 51.10848 | -83.92531 | 39581 ft | 486 kts | 249° |
| 2026-05-04 04:13 | 51.08352 | -84.02552 | 39585 ft | 486 kts | 249° |
| 2026-05-04 04:14 | 51.05853 | -84.12542 | 39580 ft | 486 kts | 249° |
| 2026-05-04 04:14 | 51.03355 | -84.22478 | 39582 ft | 486 kts | 249° |
| 2026-05-04 04:15 | 51.00844 | -84.32424 | 39580 ft | 486 kts | 249° |
| 2026-05-04 04:15 | 50.98303 | -84.42443 | 39584 ft | 486 kts | 249° |
| 2026-05-04 04:16 | 50.95778 | -84.52357 | 39581 ft | 486 kts | 249° |
| 2026-05-04 04:16 | 50.93251 | -84.62234 | 39586 ft | 486 kts | 249° |
| 2026-05-04 04:17 | 50.90704 | -84.72147 | 39586 ft | 486 kts | 249° |
| 2026-05-04 04:17 | 50.88130 | -84.82119 | 39587 ft | 486 kts | 249° |
| 2026-05-04 04:18 | 50.85581 | -84.91952 | 39584 ft | 486 kts | 249° |
| 2026-05-04 04:18 | 50.82995 | -85.01882 | 39584 ft | 486 kts | 249° |
| 2026-05-04 04:19 | 50.80422 | -85.11723 | 39584 ft | 486 kts | 249° |
| 2026-05-04 04:19 | 50.77838 | -85.21563 | 39573 ft | 486 kts | 248° |
| 2026-05-04 04:20 | 50.75248 | -85.31383 | 39587 ft | 485 kts | 248° |
| 2026-05-04 04:20 | 50.72636 | -85.41243 | 39584 ft | 485 kts | 248° |
| 2026-05-04 04:21 | 50.70034 | -85.51022 | 39581 ft | 485 kts | 248° |
| 2026-05-04 04:21 | 50.67417 | -85.60818 | 39581 ft | 485 kts | 248° |
| 2026-05-04 04:22 | 50.64779 | -85.70653 | 39578 ft | 485 kts | 248° |
| 2026-05-04 04:22 | 50.62141 | -85.80442 | 39578 ft | 485 kts | 248° |
| 2026-05-04 04:23 | 50.59508 | -85.90173 | 39578 ft | 485 kts | 248° |
| 2026-05-04 04:23 | 50.56849 | -85.99960 | 39571 ft | 484 kts | 248° |
| 2026-05-04 04:24 | 50.54198 | -86.09674 | 39576 ft | 484 kts | 248° |
| 2026-05-04 04:24 | 50.51534 | -86.19396 | 39580 ft | 484 kts | 248° |
| 2026-05-04 04:25 | 50.48868 | -86.29083 | 39578 ft | 484 kts | 248° |
| 2026-05-04 04:25 | 50.46199 | -86.38743 | 39578 ft | 483 kts | 248° |
| 2026-05-04 04:26 | 50.43531 | -86.48362 | 39584 ft | 482 kts | 248° |
| 2026-05-04 04:26 | 50.40828 | -86.58065 | 39584 ft | 482 kts | 248° |
| 2026-05-04 04:27 | 50.38139 | -86.67679 | 39584 ft | 482 kts | 248° |
| 2026-05-04 04:27 | 50.35451 | -86.77248 | 39580 ft | 482 kts | 248° |
| 2026-05-04 04:28 | 50.32752 | -86.86816 | 39595 ft | 479 kts | 248° |
| 2026-05-04 04:28 | 50.30053 | -86.96350 | 39578 ft | 479 kts | 248° |
| 2026-05-04 04:29 | 50.27345 | -87.05878 | 39585 ft | 479 kts | 248° |
| 2026-05-04 04:29 | 50.24643 | -87.15346 | 39582 ft | 479 kts | 248° |
| 2026-05-04 04:30 | 50.21910 | -87.24882 | 39568 ft | 479 kts | 248° |
| 2026-05-04 04:30 | 50.19189 | -87.34339 | 39576 ft | 478 kts | 248° |
| 2026-05-04 04:31 | 50.16464 | -87.43775 | 39570 ft | 477 kts | 248° |
| 2026-05-04 04:31 | 50.13729 | -87.53205 | 39579 ft | 477 kts | 248° |
| 2026-05-04 04:32 | 50.11004 | -87.62570 | 39568 ft | 476 kts | 248° |
| 2026-05-04 04:32 | 50.08249 | -87.71995 | 39558 ft | 476 kts | 248° |
| 2026-05-04 04:33 | 50.05511 | -87.81325 | 39561 ft | 475 kts | 248° |
| 2026-05-04 04:33 | 50.02757 | -87.90678 | 39563 ft | 475 kts | 248° |
| 2026-05-04 04:34 | 49.99911 | -87.99945 | 39556 ft | 476 kts | 243° |
| 2026-05-04 04:34 | 49.96515 | -88.08779 | 39555 ft | 477 kts | 241° |
| 2026-05-04 04:35 | 49.93007 | -88.17497 | 39554 ft | 477 kts | 240° |
| 2026-05-04 04:35 | 49.89470 | -88.26204 | 39547 ft | 476 kts | 240° |
| 2026-05-04 04:36 | 49.85941 | -88.34895 | 39549 ft | 476 kts | 240° |
| 2026-05-04 04:36 | 49.82437 | -88.43518 | 39530 ft | 476 kts | 240° |
| 2026-05-04 04:37 | 49.75364 | -88.60847 | 39510 ft | 476 kts | 240° |
| 2026-05-04 04:38 | 49.71824 | -88.69479 | 39501 ft | 475 kts | 240° |
| 2026-05-04 04:38 | 49.68276 | -88.78097 | 39504 ft | 475 kts | 240° |
| 2026-05-04 04:39 | 49.64724 | -88.86700 | 39501 ft | 474 kts | 240° |
| 2026-05-04 04:39 | 49.61188 | -88.95236 | 39493 ft | 475 kts | 240° |
| 2026-05-04 04:40 | 49.58217 | -89.02386 | 39495 ft | 474 kts | 240° |
| 2026-05-04 04:40 | 49.54056 | -89.12369 | 39487 ft | 474 kts | 240° |
| 2026-05-04 04:41 | 49.51078 | -89.19490 | 39496 ft | 473 kts | 240° |
| 2026-05-04 04:41 | 49.47531 | -89.27947 | 39497 ft | 472 kts | 240° |
| 2026-05-04 04:42 | 49.43965 | -89.36421 | 39497 ft | 472 kts | 240° |
| 2026-05-04 04:42 | 49.40380 | -89.44916 | 39497 ft | 472 kts | 240° |
| 2026-05-04 04:43 | 49.36815 | -89.53335 | 39497 ft | 472 kts | 239° |
| 2026-05-04 04:43 | 49.33228 | -89.61780 | 39501 ft | 472 kts | 239° |
| 2026-05-04 04:44 | 49.29654 | -89.70166 | 39491 ft | 471 kts | 239° |
| 2026-05-04 04:44 | 49.26071 | -89.78549 | 39500 ft | 471 kts | 239° |
| 2026-05-04 04:45 | 49.22458 | -89.86975 | 39505 ft | 471 kts | 239° |
| 2026-05-04 04:47 | 49.09848 | -90.16175 | 39506 ft | 471 kts | 239° |
| 2026-05-04 04:47 | 49.06238 | -90.24474 | 39502 ft | 470 kts | 239° |
| 2026-05-04 04:48 | 49.02616 | -90.32776 | 39504 ft | 469 kts | 239° |
| 2026-05-04 04:49 | 48.93576 | -90.53389 | 39501 ft | 469 kts | 239° |
| 2026-05-04 04:49 | 48.89941 | -90.61630 | 39500 ft | 469 kts | 239° |
| 2026-05-04 04:50 | 48.86296 | -90.69871 | 39501 ft | 469 kts | 239° |
| 2026-05-04 04:50 | 48.82672 | -90.78040 | 39495 ft | 469 kts | 239° |
| 2026-05-04 04:51 | 48.79012 | -90.86265 | 39495 ft | 469 kts | 239° |
| 2026-05-04 04:51 | 48.75368 | -90.94428 | 39489 ft | 471 kts | 238° |
| 2026-05-04 04:52 | 48.71680 | -91.02665 | 39489 ft | 472 kts | 238° |
| 2026-05-04 04:52 | 48.67982 | -91.10898 | 39487 ft | 472 kts | 238° |
| 2026-05-04 04:53 | 48.64305 | -91.19060 | 39470 ft | 472 kts | 238° |
| 2026-05-04 04:53 | 48.60609 | -91.27239 | 39485 ft | 468 kts | 238° |
| 2026-05-04 04:54 | 48.56928 | -91.35358 | 39482 ft | 467 kts | 239° |
| 2026-05-04 04:54 | 48.53263 | -91.43421 | 39482 ft | 466 kts | 238° |
| 2026-05-04 04:55 | 48.49607 | -91.51441 | 39481 ft | 466 kts | 238° |
| 2026-05-04 04:55 | 48.45925 | -91.59496 | 39481 ft | 466 kts | 238° |
| 2026-05-04 04:56 | 48.42246 | -91.67515 | 39464 ft | 466 kts | 238° |
| 2026-05-04 04:56 | 48.38559 | -91.75525 | 39475 ft | 464 kts | 238° |
| 2026-05-04 04:57 | 48.34870 | -91.83520 | 39473 ft | 465 kts | 238° |
| 2026-05-04 04:57 | 48.31196 | -91.91464 | 39477 ft | 465 kts | 238° |
| 2026-05-04 04:58 | 48.27492 | -91.99445 | 39474 ft | 465 kts | 238° |
| 2026-05-04 04:58 | 48.23795 | -92.07389 | 39471 ft | 465 kts | 238° |
| 2026-05-04 04:59 | 48.20088 | -92.15330 | 39462 ft | 465 kts | 239° |
| 2026-05-04 04:59 | 48.16368 | -92.23270 | 39476 ft | 464 kts | 239° |
| 2026-05-04 05:00 | 48.12662 | -92.31164 | 39478 ft | 463 kts | 239° |
| 2026-05-04 05:01 | 48.07113 | -92.42942 | 39475 ft | 463 kts | 239° |
| 2026-05-04 05:01 | 48.03391 | -92.50814 | 39462 ft | 463 kts | 239° |
| 2026-05-04 05:02 | 47.99664 | -92.58670 | 39454 ft | 463 kts | 239° |
| 2026-05-04 05:02 | 47.95953 | -92.66469 | 39447 ft | 462 kts | 239° |
| 2026-05-04 05:03 | 47.92229 | -92.74274 | 39442 ft | 461 kts | 239° |
| 2026-05-04 05:04 | 47.84775 | -92.89834 | 39440 ft | 462 kts | 239° |
| 2026-05-04 05:04 | 47.81032 | -92.97613 | 39483 ft | 461 kts | 239° |
| 2026-05-04 05:06 | 47.66029 | -93.28576 | 39470 ft | 463 kts | 239° |
| 2026-05-04 05:07 | 47.62266 | -93.36284 | 39449 ft | 463 kts | 239° |
| 2026-05-04 05:07 | 47.58479 | -93.44021 | 39453 ft | 462 kts | 239° |
| 2026-05-04 05:09 | 47.41383 | -93.78688 | 39491 ft | 464 kts | 239° |
| 2026-05-04 05:10 | 47.37558 | -93.86383 | 39497 ft | 464 kts | 239° |
| 2026-05-04 05:10 | 47.33730 | -93.94065 | 39498 ft | 465 kts | 239° |
| 2026-05-04 05:11 | 47.29914 | -94.01700 | 39496 ft | 465 kts | 239° |
| 2026-05-04 05:11 | 47.26079 | -94.09353 | 39501 ft | 466 kts | 239° |
| 2026-05-04 05:12 | 47.22209 | -94.17054 | 39506 ft | 466 kts | 238° |
| 2026-05-04 05:12 | 47.18361 | -94.24688 | 39506 ft | 465 kts | 238° |
| 2026-05-04 05:13 | 47.14498 | -94.32332 | 39497 ft | 465 kts | 238° |
| 2026-05-04 05:13 | 47.10652 | -94.39922 | 39507 ft | 465 kts | 238° |
| 2026-05-04 05:14 | 47.06760 | -94.47581 | 39502 ft | 466 kts | 238° |
| 2026-05-04 05:14 | 47.02902 | -94.55151 | 39507 ft | 465 kts | 238° |
| 2026-05-04 05:15 | 46.99038 | -94.62713 | 39512 ft | 464 kts | 238° |
| 2026-05-04 05:15 | 46.95139 | -94.70323 | 39515 ft | 464 kts | 238° |
| 2026-05-04 05:16 | 46.91276 | -94.77843 | 39507 ft | 464 kts | 238° |
| 2026-05-04 05:16 | 46.87416 | -94.85336 | 39501 ft | 464 kts | 238° |
| 2026-05-04 05:17 | 46.83528 | -94.92860 | 39496 ft | 463 kts | 238° |
| 2026-05-04 05:17 | 46.79646 | -95.00353 | 39499 ft | 462 kts | 238° |
| 2026-05-04 05:18 | 46.75765 | -95.07827 | 39503 ft | 462 kts | 238° |
| 2026-05-04 05:18 | 46.71881 | -95.15287 | 39511 ft | 462 kts | 238° |
| 2026-05-04 05:19 | 46.67992 | -95.22735 | 39542 ft | 462 kts | 238° |
| 2026-05-04 05:19 | 46.64106 | -95.30158 | 39537 ft | 461 kts | 238° |
| 2026-05-04 05:20 | 46.60189 | -95.37618 | 39545 ft | 461 kts | 238° |
| 2026-05-04 05:20 | 46.56317 | -95.44973 | 39543 ft | 461 kts | 238° |
| 2026-05-04 05:21 | 46.53047 | -95.51172 | 39545 ft | 461 kts | 238° |
| 2026-05-04 05:21 | 46.49142 | -95.58555 | 39544 ft | 461 kts | 238° |
| 2026-05-04 05:22 | 46.45261 | -95.65872 | 39550 ft | 460 kts | 238° |
| 2026-05-04 05:22 | 46.41333 | -95.73256 | 39565 ft | 459 kts | 238° |
| 2026-05-04 05:23 | 46.37443 | -95.80554 | 39558 ft | 459 kts | 238° |
| 2026-05-04 05:23 | 46.33598 | -95.87750 | 39556 ft | 459 kts | 238° |
| 2026-05-04 05:24 | 46.29702 | -95.95019 | 39546 ft | 459 kts | 238° |
| 2026-05-04 05:24 | 46.25795 | -96.02291 | 39543 ft | 458 kts | 238° |
| 2026-05-04 05:25 | 46.21876 | -96.09563 | 39543 ft | 457 kts | 238° |
| 2026-05-04 05:25 | 46.17971 | -96.16793 | 39538 ft | 457 kts | 238° |
| 2026-05-04 05:26 | 46.14070 | -96.23999 | 39551 ft | 457 kts | 238° |
| 2026-05-04 05:26 | 46.10152 | -96.31215 | 39553 ft | 457 kts | 238° |
| 2026-05-04 05:28 | 45.95162 | -96.58652 | 39556 ft | 450 kts | 238° |
| 2026-05-04 05:29 | 45.91317 | -96.65633 | 39554 ft | 442 kts | 238° |
| 2026-05-04 05:29 | 45.87513 | -96.72541 | 39552 ft | 441 kts | 238° |
| 2026-05-04 05:31 | 45.72281 | -97.00030 | 39568 ft | 441 kts | 238° |
| 2026-05-04 05:32 | 45.68458 | -97.06885 | 39560 ft | 441 kts | 238° |
| 2026-05-04 05:33 | 45.62710 | -97.17157 | 39590 ft | 441 kts | 237° |
| 2026-05-04 05:33 | 45.58874 | -97.23990 | 39601 ft | 441 kts | 237° |
| 2026-05-04 05:34 | 45.55036 | -97.30813 | 39598 ft | 441 kts | 237° |
| 2026-05-04 05:34 | 45.51170 | -97.37669 | 39615 ft | 443 kts | 237° |
| 2026-05-04 05:35 | 45.47324 | -97.44475 | 39614 ft | 444 kts | 237° |
| 2026-05-04 05:35 | 45.43419 | -97.51363 | 39637 ft | 444 kts | 237° |
| 2026-05-04 05:36 | 45.39532 | -97.58203 | 39633 ft | 444 kts | 237° |
| 2026-05-04 05:36 | 45.35640 | -97.65008 | 39641 ft | 445 kts | 236° |
| 2026-05-04 05:37 | 45.31599 | -97.71621 | 39628 ft | 446 kts | 234° |
| 2026-05-04 05:37 | 45.27455 | -97.78254 | 39657 ft | 448 kts | 234° |
| 2026-05-04 05:38 | 45.21280 | -97.88205 | 39661 ft | 448 kts | 235° |
| 2026-05-04 05:38 | 45.17186 | -97.94827 | 39670 ft | 448 kts | 235° |
| 2026-05-04 05:39 | 45.11013 | -98.04787 | 39666 ft | 448 kts | 234° |
| 2026-05-04 05:40 | 45.04843 | -98.14706 | 39671 ft | 449 kts | 234° |
| 2026-05-04 05:40 | 45.00713 | -98.21321 | 39672 ft | 449 kts | 234° |
| 2026-05-04 05:41 | 44.96583 | -98.27921 | 39671 ft | 449 kts | 234° |
| 2026-05-04 05:41 | 44.92470 | -98.34480 | 39672 ft | 449 kts | 234° |
| 2026-05-04 05:42 | 44.88320 | -98.41084 | 39658 ft | 449 kts | 234° |
| 2026-05-04 05:42 | 44.84161 | -98.47684 | 39677 ft | 449 kts | 234° |
| 2026-05-04 05:43 | 44.80018 | -98.54245 | 39680 ft | 449 kts | 234° |
| 2026-05-04 05:45 | 44.63399 | -98.80406 | 39671 ft | 450 kts | 234° |
| 2026-05-04 05:47 | 44.46639 | -99.06546 | 39687 ft | 451 kts | 233° |
| 2026-05-04 05:47 | 44.42434 | -99.13066 | 39689 ft | 451 kts | 233° |
| 2026-05-04 05:48 | 44.38239 | -99.19556 | 39698 ft | 451 kts | 233° |
| 2026-05-04 05:48 | 44.34063 | -99.26002 | 39703 ft | 451 kts | 233° |
| 2026-05-04 05:49 | 44.29846 | -99.32495 | 39708 ft | 451 kts | 233° |
| 2026-05-04 05:49 | 44.25627 | -99.38976 | 39709 ft | 451 kts | 233° |
| 2026-05-04 05:51 | 44.08632 | -99.64814 | 39721 ft | 453 kts | 232° |
| 2026-05-04 05:52 | 44.04361 | -99.71262 | 39725 ft | 453 kts | 232° |
| 2026-05-04 05:52 | 44.00078 | -99.77716 | 39708 ft | 453 kts | 232° |
| 2026-05-04 05:54 | 43.82850 | -100.03479 | 39745 ft | 456 kts | 231° |
| 2026-05-04 05:55 | 43.78495 | -100.09823 | 39750 ft | 456 kts | 231° |
| 2026-05-04 05:55 | 43.74133 | -100.16180 | 39752 ft | 455 kts | 231° |
| 2026-05-04 05:56 | 43.69802 | -100.22484 | 39749 ft | 454 kts | 231° |
| 2026-05-04 05:56 | 43.65448 | -100.28808 | 39758 ft | 453 kts | 231° |
| 2026-05-04 05:57 | 43.61101 | -100.35109 | 39757 ft | 453 kts | 231° |
| 2026-05-04 05:57 | 43.56751 | -100.41402 | 39765 ft | 453 kts | 231° |
| 2026-05-04 05:58 | 43.52394 | -100.47691 | 39763 ft | 452 kts | 231° |
| 2026-05-04 05:58 | 43.48046 | -100.53952 | 39772 ft | 451 kts | 231° |
| 2026-05-04 05:59 | 43.43705 | -100.60190 | 39769 ft | 451 kts | 230° |
| 2026-05-04 05:59 | 43.39395 | -100.66369 | 39775 ft | 451 kts | 230° |
| 2026-05-04 06:00 | 43.35041 | -100.72597 | 39776 ft | 451 kts | 230° |
| 2026-05-04 06:00 | 43.30691 | -100.78807 | 39773 ft | 451 kts | 231° |
| 2026-05-04 06:01 | 43.26327 | -100.85021 | 39776 ft | 451 kts | 230° |
| 2026-05-04 06:03 | 43.08873 | -101.09744 | 39779 ft | 451 kts | 230° |
| 2026-05-04 06:05 | 42.90992 | -101.34850 | 39825 ft | 452 kts | 230° |
| 2026-05-04 06:06 | 42.86587 | -101.41000 | 39824 ft | 452 kts | 230° |
| 2026-05-04 06:06 | 42.82183 | -101.47135 | 39832 ft | 452 kts | 230° |
| 2026-05-04 06:07 | 42.77774 | -101.53264 | 39829 ft | 452 kts | 230° |
| 2026-05-04 06:07 | 42.73374 | -101.59367 | 39848 ft | 452 kts | 230° |
| 2026-05-04 06:08 | 42.68969 | -101.65466 | 39836 ft | 452 kts | 230° |
| 2026-05-04 06:08 | 42.64589 | -101.71515 | 39842 ft | 452 kts | 230° |
| 2026-05-04 06:09 | 42.60174 | -101.77601 | 39828 ft | 452 kts | 230° |
| 2026-05-04 06:11 | 42.42476 | -102.01863 | 39825 ft | 452 kts | 229° |
| 2026-05-04 06:13 | 42.24745 | -102.25965 | 39835 ft | 452 kts | 229° |
| 2026-05-04 06:14 | 42.09928 | -102.45949 | 39856 ft | 452 kts | 229° |
| 2026-05-04 06:15 | 42.05495 | -102.51901 | 39866 ft | 453 kts | 229° |
| 2026-05-04 06:15 | 42.01027 | -102.57888 | 39869 ft | 453 kts | 229° |
| 2026-05-04 06:16 | 41.96558 | -102.63864 | 39874 ft | 453 kts | 229° |
| 2026-05-04 06:16 | 41.92086 | -102.69831 | 39873 ft | 453 kts | 229° |
| 2026-05-04 06:17 | 41.87618 | -102.75779 | 39866 ft | 453 kts | 229° |
| 2026-05-04 06:17 | 41.85355 | -102.78787 | 39859 ft | 452 kts | 229° |
| 2026-05-04 06:18 | 41.80879 | -102.84728 | 39854 ft | 452 kts | 229° |
| 2026-05-04 06:20 | 41.62982 | -103.08360 | 39844 ft | 451 kts | 229° |
| 2026-05-04 06:21 | 41.48559 | -103.15884 | 39333 ft | 486 kts | 186° |
| 2026-05-04 06:21 | 41.45154 | -103.15966 | 39086 ft | 490 kts | 186° |
| 2026-05-04 06:22 | 41.41750 | -103.16055 | 38586 ft | 487 kts | 186° |
| 2026-05-04 06:22 | 41.38358 | -103.16159 | 37835 ft | 487 kts | 187° |
| 2026-05-04 06:25 | 40.97361 | -103.23667 | 30688 ft | 426 kts | 223° |
| 2026-05-04 06:25 | 40.95012 | -103.26057 | 30255 ft | 424 kts | 223° |
| 2026-05-04 06:26 | 40.92680 | -103.28426 | 29819 ft | 422 kts | 223° |
| 2026-05-04 06:26 | 40.90355 | -103.30775 | 29364 ft | 420 kts | 223° |
| 2026-05-04 06:26 | 40.88035 | -103.33112 | 28939 ft | 418 kts | 223° |
| 2026-05-04 06:26 | 40.85718 | -103.35440 | 28522 ft | 416 kts | 223° |
| 2026-05-04 06:27 | 40.76609 | -103.44563 | 26875 ft | 408 kts | 222° |
| 2026-05-04 06:28 | 40.74353 | -103.46833 | 26494 ft | 407 kts | 222° |
| 2026-05-04 06:28 | 40.72107 | -103.49105 | 26119 ft | 406 kts | 222° |
| 2026-05-04 06:28 | 40.69866 | -103.51381 | 25738 ft | 405 kts | 222° |
| 2026-05-04 06:28 | 40.67622 | -103.53598 | 25429 ft | 403 kts | 221° |
| 2026-05-04 06:29 | 40.65363 | -103.55790 | 25189 ft | 402 kts | 221° |
| 2026-05-04 06:29 | 40.63123 | -103.57968 | 24953 ft | 398 kts | 221° |
| 2026-05-04 06:29 | 40.60926 | -103.60145 | 24598 ft | 392 kts | 221° |
| 2026-05-04 06:29 | 40.58757 | -103.62313 | 24120 ft | 389 kts | 221° |
| 2026-05-04 06:30 | 40.56606 | -103.64464 | 23668 ft | 387 kts | 221° |
| 2026-05-04 06:30 | 40.54464 | -103.66604 | 23129 ft | 385 kts | 221° |
| 2026-05-04 06:30 | 40.52366 | -103.68697 | 22625 ft | 382 kts | 221° |
| 2026-05-04 06:30 | 40.50261 | -103.70794 | 22156 ft | 378 kts | 221° |
| 2026-05-04 06:31 | 40.48173 | -103.72872 | 21742 ft | 373 kts | 221° |
| 2026-05-04 06:31 | 40.46159 | -103.74965 | 21303 ft | 366 kts | 226° |
| 2026-05-04 06:31 | 40.44530 | -103.77469 | 20835 ft | 357 kts | 240° |
| 2026-05-04 06:31 | 40.43217 | -103.80215 | 20382 ft | 353 kts | 243° |
| 2026-05-04 06:32 | 40.41963 | -103.82980 | 19903 ft | 350 kts | 243° |
| 2026-05-04 06:33 | 40.33465 | -104.01528 | 17440 ft | 311 kts | 243° |
| 2026-05-04 06:34 | 40.32416 | -104.03899 | 17312 ft | 298 kts | 247° |
| 2026-05-04 06:34 | 40.31782 | -104.06430 | 16924 ft | 290 kts | 264° |
| 2026-05-04 06:34 | 40.31785 | -104.09039 | 16619 ft | 284 kts | 276° |
| 2026-05-04 06:34 | 40.32004 | -104.11601 | 16289 ft | 282 kts | 278° |
| 2026-05-04 06:35 | 40.32245 | -104.14141 | 15957 ft | 280 kts | 278° |
| 2026-05-04 06:36 | 40.33691 | -104.30485 | 14668 ft | 230 kts | 277° |
| 2026-05-04 06:37 | 40.33870 | -104.32564 | 14436 ft | 229 kts | 277° |
| 2026-05-04 06:37 | 40.34047 | -104.34634 | 14179 ft | 228 kts | 277° |
| 2026-05-04 06:37 | 40.34224 | -104.36699 | 13924 ft | 228 kts | 277° |
| 2026-05-04 06:37 | 40.34360 | -104.38787 | 13748 ft | 236 kts | 274° |
| 2026-05-04 06:38 | 40.34432 | -104.40971 | 13541 ft | 242 kts | 273° |
| 2026-05-04 06:38 | 40.34497 | -104.43183 | 13287 ft | 242 kts | 273° |
| 2026-05-04 06:40 | 40.34573 | -104.58515 | 11919 ft | 243 kts | 259° |
| 2026-05-04 06:40 | 40.34180 | -104.60668 | 11918 ft | 243 kts | 258° |
| 2026-05-04 06:40 | 40.33776 | -104.62819 | 11921 ft | 243 kts | 258° |
| 2026-05-04 06:40 | 40.33292 | -104.64938 | 11910 ft | 244 kts | 249° |
| 2026-05-04 06:41 | 40.32298 | -104.66745 | 11853 ft | 249 kts | 224° |
| 2026-05-04 06:41 | 40.30864 | -104.68049 | 11671 ft | 251 kts | 214° |
| 2026-05-04 06:41 | 40.29226 | -104.68864 | 11486 ft | 255 kts | 194° |
| 2026-05-04 06:41 | 40.27454 | -104.69165 | 11315 ft | 258 kts | 187° |
| 2026-05-04 06:42 | 40.25658 | -104.69244 | 11024 ft | 257 kts | 183° |
| 2026-05-04 06:42 | 40.23864 | -104.69228 | 10970 ft | 258 kts | 182° |
| 2026-05-04 06:42 | 40.22070 | -104.69220 | 10952 ft | 257 kts | 183° |
| 2026-05-04 06:44 | 40.09717 | -104.69374 | 9079 ft | 254 kts | 182° |
| 2026-05-04 06:44 | 40.07971 | -104.69394 | 8743 ft | 248 kts | 182° |
| 2026-05-04 06:44 | 40.06267 | -104.69414 | 8483 ft | 242 kts | 183° |
| 2026-05-04 06:45 | 40.04633 | -104.69436 | 8191 ft | 231 kts | 183° |
| 2026-05-04 06:45 | 40.03061 | -104.69450 | 7921 ft | 216 kts | 183° |
| 2026-05-04 06:45 | 40.01598 | -104.69467 | 7648 ft | 204 kts | 183° |
| 2026-05-04 06:45 | 40.00220 | -104.69481 | 7402 ft | 191 kts | 185° |
| 2026-05-04 06:46 | 39.98944 | -104.69500 | 7186 ft | 181 kts | 184° |
| 2026-05-04 06:46 | 39.97724 | -104.69512 | 6966 ft | 171 kts | 184° |
| 2026-05-04 06:46 | 39.96576 | -104.69519 | 6767 ft | 158 kts | 184° |
| 2026-05-04 06:46 | 39.95677 | -104.69533 | 6614 ft | 150 kts | 185° |
| 2026-05-04 06:48 | 39.93022 | -104.69568 | 6110 ft | 143 kts | 185° |
| 2026-05-04 06:48 | 39.92021 | -104.69580 | 5880 ft | 145 kts | 186° |
| 2026-05-04 06:49 | 39.91020 | -104.69604 | 5652 ft | 144 kts | 185° |
| 2026-05-04 06:50 | 39.86622 | -104.69500 | 5343 ft | 21 kts | 150° |
| 2026-05-04 06:51 | 39.86492 | -104.69406 | 5346 ft | 22 kts | 151° |
| 2026-05-04 06:51 | 39.86360 | -104.69309 | 5343 ft | 22 kts | 149° |
| 2026-05-04 06:51 | 39.86238 | -104.69219 | 5348 ft | 21 kts | 151° |
| 2026-05-04 06:51 | 39.86113 | -104.69128 | 5354 ft | 21 kts | 150° |
| 2026-05-04 06:52 | 39.86035 | -104.69046 | 5355 ft | 13 kts | 104° |
| 2026-05-04 06:52 | 39.86035 | -104.68917 | 5358 ft | 17 kts | 91° |
| 2026-05-04 06:52 | 39.86033 | -104.68736 | 5367 ft | 23 kts | 90° |
| 2026-05-04 06:52 | 39.86034 | -104.68563 | 5372 ft | 9 kts | 89° |
| 2026-05-04 06:53 | 39.85998 | -104.68512 | 5375 ft | 11 kts | 169° |
| 2026-05-04 06:53 | 39.85896 | -104.68510 | 5373 ft | 18 kts | 180° |
| 2026-05-04 06:53 | 39.85746 | -104.68511 | 5375 ft | 25 kts | 180° |
| 2026-05-04 06:53 | 39.85595 | -104.68495 | 5377 ft | 4 kts | 139° |
| 2026-05-04 06:54 | 39.85596 | -104.68473 | 5377 ft | 6 kts | 88° |
| 2026-05-04 06:54 | 39.85598 | -104.68376 | 5378 ft | 15 kts | 89° |
| 2026-05-04 06:54 | 39.85597 | -104.68243 | 5387 ft | 16 kts | 89° |
| 2026-05-04 06:54 | 39.85557 | -104.68129 | 5387 ft | 14 kts | 138° |
| 2026-05-04 06:55 | 39.85530 | -104.68008 | 5386 ft | 17 kts | 90° |
| 2026-05-04 06:55 | 39.85531 | -104.67832 | 5382 ft | 22 kts | 89° |
| 2026-05-04 06:55 | 39.85528 | -104.67621 | 5389 ft | 25 kts | 91° |
| 2026-05-04 06:55 | 39.85527 | -104.67412 | 5389 ft | 11 kts | 95° |
| 2026-05-04 06:56 | 39.85525 | -104.67402 | 5389 ft | 1 kts | 107° |
| 2026-05-04 06:57 | 39.85445 | -104.67326 | 5390 ft | 0 kts | 146° |